<?xml version="1.0" encoding="UTF-8" standalone="no" ?>
<gpx xmlns="http://www.topografix.com/GPX/1/1" xmlns:xsi="http://www.w3.org/2001/XMLSchema-instance" xsi:schemaLocation="http://www.topografix.com/GPX/1/1 http://www.topografix.com/GPX/1/1/gpx.xsd" version="1.1" creator="VisuGPX - https://www.visugpx.com">
  <metadata>
    <name>2020-12-17cascade-de-cubservies</name>
    <desc><![CDATA[cascade-de-cubservies Pour Yvon en Janvier si Covid -]]></desc>
  </metadata>
  <trk>
    <name><![CDATA[2020-12-17 15:31:22]]></name>
    <trkseg>
      <trkpt lat="43.37098" lon="2.37685">
        <ele>309.2</ele>
        <time>2020-12-17T08:52:26Z</time>
      </trkpt>
      <trkpt lat="43.3711" lon="2.37672">
        <ele>311.12</ele>
        <time>2020-12-17T08:53:17Z</time>
      </trkpt>
      <trkpt lat="43.37114" lon="2.37653">
        <ele>313.53</ele>
        <time>2020-12-17T08:53:42Z</time>
      </trkpt>
      <trkpt lat="43.37123" lon="2.37644">
        <ele>315.45</ele>
        <time>2020-12-17T08:53:56Z</time>
      </trkpt>
      <trkpt lat="43.37126" lon="2.37661">
        <ele>317.37</ele>
        <time>2020-12-17T08:54:13Z</time>
      </trkpt>
      <trkpt lat="43.37128" lon="2.3768">
        <ele>319.3</ele>
        <time>2020-12-17T08:54:28Z</time>
      </trkpt>
      <trkpt lat="43.3714" lon="2.37699">
        <ele>321.22</ele>
        <time>2020-12-17T08:54:45Z</time>
      </trkpt>
      <trkpt lat="43.37151" lon="2.37709">
        <ele>322.18</ele>
        <time>2020-12-17T08:54:58Z</time>
      </trkpt>
      <trkpt lat="43.3716" lon="2.3772">
        <ele>323.62</ele>
        <time>2020-12-17T08:55:12Z</time>
      </trkpt>
      <trkpt lat="43.37168" lon="2.37733">
        <ele>325.54</ele>
        <time>2020-12-17T08:55:25Z</time>
      </trkpt>
      <trkpt lat="43.37175" lon="2.37745">
        <ele>326.5</ele>
        <time>2020-12-17T08:55:38Z</time>
      </trkpt>
      <trkpt lat="43.37189" lon="2.37752">
        <ele>328.91</ele>
        <time>2020-12-17T08:55:55Z</time>
      </trkpt>
      <trkpt lat="43.37207" lon="2.37758">
        <ele>330.35</ele>
        <time>2020-12-17T08:56:18Z</time>
      </trkpt>
      <trkpt lat="43.37226" lon="2.37758">
        <ele>330.83</ele>
        <time>2020-12-17T08:56:35Z</time>
      </trkpt>
      <trkpt lat="43.37242" lon="2.37772">
        <ele>329.87</ele>
        <time>2020-12-17T08:56:54Z</time>
      </trkpt>
      <trkpt lat="43.37257" lon="2.37778">
        <ele>332.75</ele>
        <time>2020-12-17T08:57:18Z</time>
      </trkpt>
      <trkpt lat="43.37255" lon="2.37767">
        <ele>336.12</ele>
        <time>2020-12-17T08:58:10Z</time>
      </trkpt>
      <trkpt lat="43.37246" lon="2.3775">
        <ele>339.48</ele>
        <time>2020-12-17T08:58:33Z</time>
      </trkpt>
      <trkpt lat="43.3724" lon="2.37734">
        <ele>343.81</ele>
        <time>2020-12-17T08:58:58Z</time>
      </trkpt>
      <trkpt lat="43.3723" lon="2.37722">
        <ele>346.69</ele>
        <time>2020-12-17T08:59:22Z</time>
      </trkpt>
      <trkpt lat="43.37219" lon="2.37712">
        <ele>351.02</ele>
        <time>2020-12-17T08:59:48Z</time>
      </trkpt>
      <trkpt lat="43.37214" lon="2.37696">
        <ele>355.34</ele>
        <time>2020-12-17T09:00:19Z</time>
      </trkpt>
      <trkpt lat="43.37207" lon="2.37683">
        <ele>358.71</ele>
        <time>2020-12-17T09:00:42Z</time>
      </trkpt>
      <trkpt lat="43.3721" lon="2.3767">
        <ele>361.11</ele>
        <time>2020-12-17T09:01:03Z</time>
      </trkpt>
      <trkpt lat="43.37207" lon="2.37653">
        <ele>365.92</ele>
        <time>2020-12-17T09:01:30Z</time>
      </trkpt>
      <trkpt lat="43.37215" lon="2.37645">
        <ele>369.76</ele>
        <time>2020-12-17T09:02:00Z</time>
      </trkpt>
      <trkpt lat="43.37218" lon="2.37633">
        <ele>373.61</ele>
        <time>2020-12-17T09:02:24Z</time>
      </trkpt>
      <trkpt lat="43.37224" lon="2.3762">
        <ele>377.45</ele>
        <time>2020-12-17T09:02:49Z</time>
      </trkpt>
      <trkpt lat="43.37229" lon="2.37607">
        <ele>379.86</ele>
        <time>2020-12-17T09:03:12Z</time>
      </trkpt>
      <trkpt lat="43.37236" lon="2.37597">
        <ele>383.7</ele>
        <time>2020-12-17T09:03:34Z</time>
      </trkpt>
      <trkpt lat="43.3724" lon="2.37584">
        <ele>386.11</ele>
        <time>2020-12-17T09:03:56Z</time>
      </trkpt>
      <trkpt lat="43.37242" lon="2.37568">
        <ele>388.51</ele>
        <time>2020-12-17T09:04:14Z</time>
      </trkpt>
      <trkpt lat="43.37246" lon="2.37552">
        <ele>390.43</ele>
        <time>2020-12-17T09:04:33Z</time>
      </trkpt>
      <trkpt lat="43.37245" lon="2.37533">
        <ele>390.43</ele>
        <time>2020-12-17T09:04:49Z</time>
      </trkpt>
      <trkpt lat="43.37253" lon="2.3752">
        <ele>393.8</ele>
        <time>2020-12-17T09:05:10Z</time>
      </trkpt>
      <trkpt lat="43.37266" lon="2.37512">
        <ele>395.72</ele>
        <time>2020-12-17T09:05:31Z</time>
      </trkpt>
      <trkpt lat="43.3728" lon="2.37505">
        <ele>397.64</ele>
        <time>2020-12-17T09:05:49Z</time>
      </trkpt>
      <trkpt lat="43.37294" lon="2.37497">
        <ele>396.68</ele>
        <time>2020-12-17T09:06:05Z</time>
      </trkpt>
      <trkpt lat="43.37306" lon="2.37487">
        <ele>395.72</ele>
        <time>2020-12-17T09:06:20Z</time>
      </trkpt>
      <trkpt lat="43.37316" lon="2.37485">
        <ele>394.76</ele>
        <time>2020-12-17T09:06:34Z</time>
      </trkpt>
      <trkpt lat="43.37328" lon="2.37471">
        <ele>394.76</ele>
        <time>2020-12-17T09:06:49Z</time>
      </trkpt>
      <trkpt lat="43.3734" lon="2.37464">
        <ele>394.28</ele>
        <time>2020-12-17T09:07:04Z</time>
      </trkpt>
      <trkpt lat="43.37349" lon="2.37455">
        <ele>394.76</ele>
        <time>2020-12-17T09:07:18Z</time>
      </trkpt>
      <trkpt lat="43.37358" lon="2.37443">
        <ele>395.72</ele>
        <time>2020-12-17T09:07:32Z</time>
      </trkpt>
      <trkpt lat="43.37368" lon="2.37429">
        <ele>397.16</ele>
        <time>2020-12-17T09:07:46Z</time>
      </trkpt>
      <trkpt lat="43.37378" lon="2.37414">
        <ele>399.57</ele>
        <time>2020-12-17T09:08:05Z</time>
      </trkpt>
      <trkpt lat="43.37389" lon="2.37405">
        <ele>401.97</ele>
        <time>2020-12-17T09:08:24Z</time>
      </trkpt>
      <trkpt lat="43.37399" lon="2.37398">
        <ele>403.89</ele>
        <time>2020-12-17T09:08:41Z</time>
      </trkpt>
      <trkpt lat="43.37408" lon="2.37386">
        <ele>405.81</ele>
        <time>2020-12-17T09:08:59Z</time>
      </trkpt>
      <trkpt lat="43.37419" lon="2.37374">
        <ele>407.74</ele>
        <time>2020-12-17T09:09:19Z</time>
      </trkpt>
      <trkpt lat="43.3743" lon="2.37358">
        <ele>409.66</ele>
        <time>2020-12-17T09:09:35Z</time>
      </trkpt>
      <trkpt lat="43.3744" lon="2.37346">
        <ele>411.1</ele>
        <time>2020-12-17T09:09:50Z</time>
      </trkpt>
      <trkpt lat="43.37449" lon="2.3733">
        <ele>411.1</ele>
        <time>2020-12-17T09:10:05Z</time>
      </trkpt>
      <trkpt lat="43.37457" lon="2.37314">
        <ele>413.5</ele>
        <time>2020-12-17T09:10:20Z</time>
      </trkpt>
      <trkpt lat="43.37469" lon="2.37301">
        <ele>415.43</ele>
        <time>2020-12-17T09:10:39Z</time>
      </trkpt>
      <trkpt lat="43.37479" lon="2.37285">
        <ele>416.39</ele>
        <time>2020-12-17T09:10:57Z</time>
      </trkpt>
      <trkpt lat="43.37491" lon="2.37265">
        <ele>420.23</ele>
        <time>2020-12-17T09:11:30Z</time>
      </trkpt>
      <trkpt lat="43.37502" lon="2.37247">
        <ele>423.12</ele>
        <time>2020-12-17T09:12:02Z</time>
      </trkpt>
      <trkpt lat="43.3751" lon="2.37235">
        <ele>426.48</ele>
        <time>2020-12-17T09:12:24Z</time>
      </trkpt>
      <trkpt lat="43.37518" lon="2.3722">
        <ele>430.33</ele>
        <time>2020-12-17T09:12:50Z</time>
      </trkpt>
      <trkpt lat="43.37526" lon="2.37203">
        <ele>433.21</ele>
        <time>2020-12-17T09:13:09Z</time>
      </trkpt>
      <trkpt lat="43.37534" lon="2.37184">
        <ele>436.1</ele>
        <time>2020-12-17T09:13:32Z</time>
      </trkpt>
      <trkpt lat="43.37544" lon="2.37167">
        <ele>437.06</ele>
        <time>2020-12-17T09:13:51Z</time>
      </trkpt>
      <trkpt lat="43.37555" lon="2.3716">
        <ele>440.42</ele>
        <time>2020-12-17T09:14:14Z</time>
      </trkpt>
      <trkpt lat="43.37571" lon="2.37152">
        <ele>443.79</ele>
        <time>2020-12-17T09:14:54Z</time>
      </trkpt>
      <trkpt lat="43.37582" lon="2.37139">
        <ele>448.11</ele>
        <time>2020-12-17T09:15:27Z</time>
      </trkpt>
      <trkpt lat="43.37597" lon="2.37122">
        <ele>452.44</ele>
        <time>2020-12-17T09:16:01Z</time>
      </trkpt>
      <trkpt lat="43.37607" lon="2.37107">
        <ele>454.84</ele>
        <time>2020-12-17T09:16:21Z</time>
      </trkpt>
      <trkpt lat="43.37617" lon="2.37092">
        <ele>457.72</ele>
        <time>2020-12-17T09:16:45Z</time>
      </trkpt>
      <trkpt lat="43.37628" lon="2.37084">
        <ele>460.61</ele>
        <time>2020-12-17T09:17:09Z</time>
      </trkpt>
      <trkpt lat="43.37638" lon="2.37073">
        <ele>463.97</ele>
        <time>2020-12-17T09:17:38Z</time>
      </trkpt>
      <trkpt lat="43.37652" lon="2.37068">
        <ele>463.97</ele>
        <time>2020-12-17T09:17:56Z</time>
      </trkpt>
      <trkpt lat="43.37664" lon="2.37061">
        <ele>466.38</ele>
        <time>2020-12-17T09:18:16Z</time>
      </trkpt>
      <trkpt lat="43.37677" lon="2.37051">
        <ele>466.86</ele>
        <time>2020-12-17T09:18:34Z</time>
      </trkpt>
      <trkpt lat="43.37693" lon="2.37043">
        <ele>464.45</ele>
        <time>2020-12-17T09:18:58Z</time>
      </trkpt>
      <trkpt lat="43.37707" lon="2.37041">
        <ele>464.93</ele>
        <time>2020-12-17T09:19:17Z</time>
      </trkpt>
      <trkpt lat="43.37726" lon="2.37043">
        <ele>468.78</ele>
        <time>2020-12-17T09:19:45Z</time>
      </trkpt>
      <trkpt lat="43.37745" lon="2.37046">
        <ele>474.07</ele>
        <time>2020-12-17T09:20:24Z</time>
      </trkpt>
      <trkpt lat="43.37767" lon="2.3705">
        <ele>475.99</ele>
        <time>2020-12-17T09:20:56Z</time>
      </trkpt>
      <trkpt lat="43.37785" lon="2.37055">
        <ele>481.76</ele>
        <time>2020-12-17T09:21:34Z</time>
      </trkpt>
      <trkpt lat="43.37814" lon="2.37063">
        <ele>488.97</ele>
        <time>2020-12-17T09:22:28Z</time>
      </trkpt>
      <trkpt lat="43.37829" lon="2.3707">
        <ele>494.74</ele>
        <time>2020-12-17T09:23:12Z</time>
      </trkpt>
      <trkpt lat="43.37824" lon="2.37085">
        <ele>500.98</ele>
        <time>2020-12-17T09:23:53Z</time>
      </trkpt>
      <trkpt lat="43.37823" lon="2.37092">
        <ele>504.83</ele>
        <time>2020-12-17T09:24:26Z</time>
      </trkpt>
      <trkpt lat="43.37847" lon="2.37096">
        <ele>509.64</ele>
        <time>2020-12-17T09:25:09Z</time>
      </trkpt>
      <trkpt lat="43.37864" lon="2.37097">
        <ele>514.44</ele>
        <time>2020-12-17T09:25:44Z</time>
      </trkpt>
      <trkpt lat="43.37856" lon="2.37108">
        <ele>517.33</ele>
        <time>2020-12-17T09:26:13Z</time>
      </trkpt>
      <trkpt lat="43.37843" lon="2.37118">
        <ele>519.25</ele>
        <time>2020-12-17T09:26:43Z</time>
      </trkpt>
      <trkpt lat="43.37852" lon="2.3713">
        <ele>524.06</ele>
        <time>2020-12-17T09:27:18Z</time>
      </trkpt>
      <trkpt lat="43.37851" lon="2.37137">
        <ele>526.94</ele>
        <time>2020-12-17T09:27:45Z</time>
      </trkpt>
      <trkpt lat="43.37835" lon="2.37148">
        <ele>529.34</ele>
        <time>2020-12-17T09:28:11Z</time>
      </trkpt>
      <trkpt lat="43.37831" lon="2.37158">
        <ele>533.19</ele>
        <time>2020-12-17T09:28:39Z</time>
      </trkpt>
      <trkpt lat="43.37845" lon="2.37153">
        <ele>533.19</ele>
        <time>2020-12-17T09:29:00Z</time>
      </trkpt>
      <trkpt lat="43.37867" lon="2.37153">
        <ele>537.51</ele>
        <time>2020-12-17T09:29:35Z</time>
      </trkpt>
      <trkpt lat="43.3789" lon="2.37157">
        <ele>542.8</ele>
        <time>2020-12-17T09:30:15Z</time>
      </trkpt>
      <trkpt lat="43.37905" lon="2.3716">
        <ele>546.17</ele>
        <time>2020-12-17T09:30:42Z</time>
      </trkpt>
      <trkpt lat="43.37914" lon="2.37168">
        <ele>551.93</ele>
        <time>2020-12-17T09:31:26Z</time>
      </trkpt>
      <trkpt lat="43.37898" lon="2.37174">
        <ele>552.9</ele>
        <time>2020-12-17T09:31:46Z</time>
      </trkpt>
      <trkpt lat="43.37883" lon="2.37185">
        <ele>554.82</ele>
        <time>2020-12-17T09:32:08Z</time>
      </trkpt>
      <trkpt lat="43.37868" lon="2.37193">
        <ele>556.26</ele>
        <time>2020-12-17T09:32:28Z</time>
      </trkpt>
      <trkpt lat="43.37856" lon="2.37198">
        <ele>556.26</ele>
        <time>2020-12-17T09:32:40Z</time>
      </trkpt>
      <trkpt lat="43.37845" lon="2.37207">
        <ele>557.7</ele>
        <time>2020-12-17T09:33:00Z</time>
      </trkpt>
      <trkpt lat="43.37831" lon="2.37212">
        <ele>558.66</ele>
        <time>2020-12-17T09:33:17Z</time>
      </trkpt>
      <trkpt lat="43.37817" lon="2.37219">
        <ele>560.11</ele>
        <time>2020-12-17T09:33:33Z</time>
      </trkpt>
      <trkpt lat="43.37807" lon="2.37221">
        <ele>560.59</ele>
        <time>2020-12-17T09:33:47Z</time>
      </trkpt>
      <trkpt lat="43.37795" lon="2.37226">
        <ele>561.55</ele>
        <time>2020-12-17T09:34:00Z</time>
      </trkpt>
      <trkpt lat="43.37784" lon="2.37235">
        <ele>563.47</ele>
        <time>2020-12-17T09:34:15Z</time>
      </trkpt>
      <trkpt lat="43.37776" lon="2.37243">
        <ele>564.43</ele>
        <time>2020-12-17T09:34:29Z</time>
      </trkpt>
      <trkpt lat="43.37771" lon="2.37256">
        <ele>565.39</ele>
        <time>2020-12-17T09:34:43Z</time>
      </trkpt>
      <trkpt lat="43.37768" lon="2.37275">
        <ele>566.83</ele>
        <time>2020-12-17T09:34:59Z</time>
      </trkpt>
      <trkpt lat="43.37767" lon="2.37305">
        <ele>568.76</ele>
        <time>2020-12-17T09:35:25Z</time>
      </trkpt>
      <trkpt lat="43.37768" lon="2.37325">
        <ele>569.72</ele>
        <time>2020-12-17T09:35:40Z</time>
      </trkpt>
      <trkpt lat="43.37772" lon="2.3734">
        <ele>570.2</ele>
        <time>2020-12-17T09:35:54Z</time>
      </trkpt>
      <trkpt lat="43.37781" lon="2.37349">
        <ele>570.68</ele>
        <time>2020-12-17T09:36:11Z</time>
      </trkpt>
      <trkpt lat="43.37795" lon="2.37358">
        <ele>570.68</ele>
        <time>2020-12-17T09:36:31Z</time>
      </trkpt>
      <trkpt lat="43.37819" lon="2.3737">
        <ele>570.68</ele>
        <time>2020-12-17T09:36:57Z</time>
      </trkpt>
      <trkpt lat="43.37835" lon="2.37383">
        <ele>570.68</ele>
        <time>2020-12-17T09:37:17Z</time>
      </trkpt>
      <trkpt lat="43.3785" lon="2.37392">
        <ele>570.68</ele>
        <time>2020-12-17T09:37:33Z</time>
      </trkpt>
      <trkpt lat="43.37864" lon="2.37401">
        <ele>570.2</ele>
        <time>2020-12-17T09:37:50Z</time>
      </trkpt>
      <trkpt lat="43.37877" lon="2.37412">
        <ele>568.76</ele>
        <time>2020-12-17T09:38:03Z</time>
      </trkpt>
      <trkpt lat="43.37889" lon="2.37426">
        <ele>569.24</ele>
        <time>2020-12-17T09:38:21Z</time>
      </trkpt>
      <trkpt lat="43.37902" lon="2.37437">
        <ele>569.24</ele>
        <time>2020-12-17T09:38:37Z</time>
      </trkpt>
      <trkpt lat="43.37919" lon="2.37451">
        <ele>570.2</ele>
        <time>2020-12-17T09:38:54Z</time>
      </trkpt>
      <trkpt lat="43.37933" lon="2.37469">
        <ele>569.24</ele>
        <time>2020-12-17T09:40:06Z</time>
      </trkpt>
      <trkpt lat="43.37946" lon="2.37478">
        <ele>569.72</ele>
        <time>2020-12-17T09:40:30Z</time>
      </trkpt>
      <trkpt lat="43.37958" lon="2.37488">
        <ele>570.68</ele>
        <time>2020-12-17T09:40:47Z</time>
      </trkpt>
      <trkpt lat="43.37972" lon="2.37496">
        <ele>572.12</ele>
        <time>2020-12-17T09:41:04Z</time>
      </trkpt>
      <trkpt lat="43.37988" lon="2.37508">
        <ele>573.56</ele>
        <time>2020-12-17T09:41:23Z</time>
      </trkpt>
      <trkpt lat="43.38003" lon="2.37521">
        <ele>573.08</ele>
        <time>2020-12-17T09:41:40Z</time>
      </trkpt>
      <trkpt lat="43.38023" lon="2.37534">
        <ele>573.08</ele>
        <time>2020-12-17T09:42:02Z</time>
      </trkpt>
      <trkpt lat="43.38041" lon="2.37556">
        <ele>572.12</ele>
        <time>2020-12-17T09:42:25Z</time>
      </trkpt>
      <trkpt lat="43.38055" lon="2.37562">
        <ele>572.6</ele>
        <time>2020-12-17T09:42:42Z</time>
      </trkpt>
      <trkpt lat="43.38065" lon="2.37587">
        <ele>573.08</ele>
        <time>2020-12-17T09:43:11Z</time>
      </trkpt>
      <trkpt lat="43.38084" lon="2.37587">
        <ele>572.12</ele>
        <time>2020-12-17T09:43:31Z</time>
      </trkpt>
      <trkpt lat="43.38093" lon="2.37607">
        <ele>571.16</ele>
        <time>2020-12-17T09:43:52Z</time>
      </trkpt>
      <trkpt lat="43.38076" lon="2.37651">
        <ele>571.64</ele>
        <time>2020-12-17T09:44:27Z</time>
      </trkpt>
      <trkpt lat="43.38067" lon="2.37671">
        <ele>572.6</ele>
        <time>2020-12-17T09:44:45Z</time>
      </trkpt>
      <trkpt lat="43.38058" lon="2.37696">
        <ele>573.56</ele>
        <time>2020-12-17T09:45:09Z</time>
      </trkpt>
      <trkpt lat="43.38048" lon="2.37716">
        <ele>573.56</ele>
        <time>2020-12-17T09:45:24Z</time>
      </trkpt>
      <trkpt lat="43.38038" lon="2.37738">
        <ele>575.01</ele>
        <time>2020-12-17T09:45:52Z</time>
      </trkpt>
      <trkpt lat="43.38031" lon="2.37756">
        <ele>575.49</ele>
        <time>2020-12-17T09:46:08Z</time>
      </trkpt>
      <trkpt lat="43.3802" lon="2.37771">
        <ele>575.49</ele>
        <time>2020-12-17T09:46:26Z</time>
      </trkpt>
      <trkpt lat="43.38012" lon="2.37789">
        <ele>575.49</ele>
        <time>2020-12-17T09:46:40Z</time>
      </trkpt>
      <trkpt lat="43.38004" lon="2.37817">
        <ele>575.97</ele>
        <time>2020-12-17T09:46:54Z</time>
      </trkpt>
      <trkpt lat="43.38004" lon="2.37841">
        <ele>576.93</ele>
        <time>2020-12-17T09:47:20Z</time>
      </trkpt>
      <trkpt lat="43.38013" lon="2.37845">
        <ele>579.33</ele>
        <time>2020-12-17T09:47:52Z</time>
      </trkpt>
      <trkpt lat="43.3802" lon="2.37823">
        <ele>581.25</ele>
        <time>2020-12-17T09:48:15Z</time>
      </trkpt>
      <trkpt lat="43.38028" lon="2.37808">
        <ele>583.18</ele>
        <time>2020-12-17T09:48:36Z</time>
      </trkpt>
      <trkpt lat="43.38048" lon="2.37795">
        <ele>587.98</ele>
        <time>2020-12-17T09:49:09Z</time>
      </trkpt>
      <trkpt lat="43.38069" lon="2.37787">
        <ele>593.27</ele>
        <time>2020-12-17T09:49:48Z</time>
      </trkpt>
      <trkpt lat="43.38092" lon="2.37775">
        <ele>600.48</ele>
        <time>2020-12-17T09:50:31Z</time>
      </trkpt>
      <trkpt lat="43.38105" lon="2.37759">
        <ele>602.88</ele>
        <time>2020-12-17T09:50:57Z</time>
      </trkpt>
      <trkpt lat="43.38119" lon="2.37739">
        <ele>605.29</ele>
        <time>2020-12-17T09:51:24Z</time>
      </trkpt>
      <trkpt lat="43.3813" lon="2.37723">
        <ele>607.69</ele>
        <time>2020-12-17T09:51:46Z</time>
      </trkpt>
      <trkpt lat="43.38142" lon="2.37702">
        <ele>610.09</ele>
        <time>2020-12-17T09:52:09Z</time>
      </trkpt>
      <trkpt lat="43.38155" lon="2.37682">
        <ele>613.46</ele>
        <time>2020-12-17T09:52:37Z</time>
      </trkpt>
      <trkpt lat="43.38167" lon="2.3766">
        <ele>615.86</ele>
        <time>2020-12-17T09:53:01Z</time>
      </trkpt>
      <trkpt lat="43.38175" lon="2.3763">
        <ele>617.3</ele>
        <time>2020-12-17T09:53:24Z</time>
      </trkpt>
      <trkpt lat="43.38174" lon="2.37602">
        <ele>619.71</ele>
        <time>2020-12-17T09:53:51Z</time>
      </trkpt>
      <trkpt lat="43.38168" lon="2.37559">
        <ele>622.11</ele>
        <time>2020-12-17T09:54:30Z</time>
      </trkpt>
      <trkpt lat="43.38165" lon="2.37529">
        <ele>624.03</ele>
        <time>2020-12-17T09:54:54Z</time>
      </trkpt>
      <trkpt lat="43.38155" lon="2.37481">
        <ele>627.88</ele>
        <time>2020-12-17T09:55:28Z</time>
      </trkpt>
      <trkpt lat="43.38144" lon="2.37456">
        <ele>630.76</ele>
        <time>2020-12-17T09:55:55Z</time>
      </trkpt>
      <trkpt lat="43.3813" lon="2.37435">
        <ele>631.72</ele>
        <time>2020-12-17T09:56:17Z</time>
      </trkpt>
      <trkpt lat="43.3812" lon="2.37423">
        <ele>633.65</ele>
        <time>2020-12-17T09:56:33Z</time>
      </trkpt>
      <trkpt lat="43.3811" lon="2.37409">
        <ele>635.57</ele>
        <time>2020-12-17T09:56:51Z</time>
      </trkpt>
      <trkpt lat="43.38098" lon="2.37395">
        <ele>637.97</ele>
        <time>2020-12-17T09:57:11Z</time>
      </trkpt>
      <trkpt lat="43.3809" lon="2.3738">
        <ele>640.38</ele>
        <time>2020-12-17T09:57:31Z</time>
      </trkpt>
      <trkpt lat="43.38089" lon="2.37363">
        <ele>643.26</ele>
        <time>2020-12-17T09:57:49Z</time>
      </trkpt>
      <trkpt lat="43.38096" lon="2.37352">
        <ele>644.22</ele>
        <time>2020-12-17T09:58:05Z</time>
      </trkpt>
      <trkpt lat="43.3811" lon="2.37343">
        <ele>644.7</ele>
        <time>2020-12-17T09:58:22Z</time>
      </trkpt>
      <trkpt lat="43.38124" lon="2.37336">
        <ele>645.18</ele>
        <time>2020-12-17T09:58:37Z</time>
      </trkpt>
      <trkpt lat="43.38138" lon="2.37324">
        <ele>645.66</ele>
        <time>2020-12-17T09:58:53Z</time>
      </trkpt>
      <trkpt lat="43.38148" lon="2.37313">
        <ele>645.66</ele>
        <time>2020-12-17T09:59:06Z</time>
      </trkpt>
      <trkpt lat="43.38159" lon="2.37303">
        <ele>645.66</ele>
        <time>2020-12-17T09:59:19Z</time>
      </trkpt>
      <trkpt lat="43.3817" lon="2.37292">
        <ele>645.66</ele>
        <time>2020-12-17T09:59:32Z</time>
      </trkpt>
      <trkpt lat="43.38181" lon="2.37281">
        <ele>646.14</ele>
        <time>2020-12-17T09:59:45Z</time>
      </trkpt>
      <trkpt lat="43.38193" lon="2.3727">
        <ele>646.14</ele>
        <time>2020-12-17T09:59:58Z</time>
      </trkpt>
      <trkpt lat="43.38206" lon="2.3726">
        <ele>646.62</ele>
        <time>2020-12-17T10:00:14Z</time>
      </trkpt>
      <trkpt lat="43.38224" lon="2.37249">
        <ele>647.1</ele>
        <time>2020-12-17T10:00:33Z</time>
      </trkpt>
      <trkpt lat="43.38238" lon="2.37238">
        <ele>647.1</ele>
        <time>2020-12-17T10:00:48Z</time>
      </trkpt>
      <trkpt lat="43.3825" lon="2.37223">
        <ele>647.59</ele>
        <time>2020-12-17T10:01:05Z</time>
      </trkpt>
      <trkpt lat="43.38263" lon="2.37212">
        <ele>648.55</ele>
        <time>2020-12-17T10:01:21Z</time>
      </trkpt>
      <trkpt lat="43.3828" lon="2.37207">
        <ele>649.03</ele>
        <time>2020-12-17T10:01:40Z</time>
      </trkpt>
      <trkpt lat="43.38293" lon="2.37205">
        <ele>650.95</ele>
        <time>2020-12-17T10:01:57Z</time>
      </trkpt>
      <trkpt lat="43.38311" lon="2.37194">
        <ele>649.51</ele>
        <time>2020-12-17T10:02:18Z</time>
      </trkpt>
      <trkpt lat="43.38325" lon="2.37192">
        <ele>649.51</ele>
        <time>2020-12-17T10:02:31Z</time>
      </trkpt>
      <trkpt lat="43.3834" lon="2.37184">
        <ele>649.51</ele>
        <time>2020-12-17T10:02:49Z</time>
      </trkpt>
      <trkpt lat="43.38357" lon="2.37173">
        <ele>649.51</ele>
        <time>2020-12-17T10:03:10Z</time>
      </trkpt>
      <trkpt lat="43.38373" lon="2.37159">
        <ele>648.55</ele>
        <time>2020-12-17T10:03:25Z</time>
      </trkpt>
      <trkpt lat="43.38384" lon="2.37152">
        <ele>649.51</ele>
        <time>2020-12-17T10:03:40Z</time>
      </trkpt>
      <trkpt lat="43.38398" lon="2.37146">
        <ele>651.43</ele>
        <time>2020-12-17T10:04:17Z</time>
      </trkpt>
      <trkpt lat="43.38392" lon="2.37122">
        <ele>653.35</ele>
        <time>2020-12-17T10:04:41Z</time>
      </trkpt>
      <trkpt lat="43.38399" lon="2.37104">
        <ele>658.64</ele>
        <time>2020-12-17T10:05:17Z</time>
      </trkpt>
      <trkpt lat="43.384" lon="2.37083">
        <ele>663.93</ele>
        <time>2020-12-17T10:05:55Z</time>
      </trkpt>
      <trkpt lat="43.38392" lon="2.37065">
        <ele>666.33</ele>
        <time>2020-12-17T10:06:14Z</time>
      </trkpt>
      <trkpt lat="43.38385" lon="2.37053">
        <ele>665.85</ele>
        <time>2020-12-17T10:07:34Z</time>
      </trkpt>
      <trkpt lat="43.38378" lon="2.37039">
        <ele>667.29</ele>
        <time>2020-12-17T10:08:37Z</time>
      </trkpt>
      <trkpt lat="43.38369" lon="2.3702">
        <ele>668.73</ele>
        <time>2020-12-17T10:08:58Z</time>
      </trkpt>
      <trkpt lat="43.38368" lon="2.36986">
        <ele>674.5</ele>
        <time>2020-12-17T10:09:51Z</time>
      </trkpt>
      <trkpt lat="43.38354" lon="2.36964">
        <ele>677.87</ele>
        <time>2020-12-17T10:10:15Z</time>
      </trkpt>
      <trkpt lat="43.38346" lon="2.36939">
        <ele>681.71</ele>
        <time>2020-12-17T10:10:52Z</time>
      </trkpt>
      <trkpt lat="43.38337" lon="2.3692">
        <ele>682.19</ele>
        <time>2020-12-17T10:11:09Z</time>
      </trkpt>
      <trkpt lat="43.38328" lon="2.36907">
        <ele>681.71</ele>
        <time>2020-12-17T10:11:20Z</time>
      </trkpt>
      <trkpt lat="43.38323" lon="2.36891">
        <ele>681.71</ele>
        <time>2020-12-17T10:11:30Z</time>
      </trkpt>
      <trkpt lat="43.38331" lon="2.36882">
        <ele>684.6</ele>
        <time>2020-12-17T10:11:46Z</time>
      </trkpt>
      <trkpt lat="43.38342" lon="2.36888">
        <ele>687.48</ele>
        <time>2020-12-17T10:12:02Z</time>
      </trkpt>
      <trkpt lat="43.38354" lon="2.36895">
        <ele>689.88</ele>
        <time>2020-12-17T10:12:18Z</time>
      </trkpt>
      <trkpt lat="43.38364" lon="2.36896">
        <ele>691.81</ele>
        <time>2020-12-17T10:12:31Z</time>
      </trkpt>
      <trkpt lat="43.38374" lon="2.369">
        <ele>693.73</ele>
        <time>2020-12-17T10:12:46Z</time>
      </trkpt>
      <trkpt lat="43.38383" lon="2.36908">
        <ele>695.17</ele>
        <time>2020-12-17T10:12:58Z</time>
      </trkpt>
      <trkpt lat="43.38391" lon="2.36915">
        <ele>697.09</ele>
        <time>2020-12-17T10:13:14Z</time>
      </trkpt>
      <trkpt lat="43.38401" lon="2.36925">
        <ele>699.98</ele>
        <time>2020-12-17T10:13:33Z</time>
      </trkpt>
      <trkpt lat="43.38411" lon="2.36932">
        <ele>702.86</ele>
        <time>2020-12-17T10:13:50Z</time>
      </trkpt>
      <trkpt lat="43.38419" lon="2.36942">
        <ele>705.26</ele>
        <time>2020-12-17T10:14:07Z</time>
      </trkpt>
      <trkpt lat="43.3843" lon="2.36948">
        <ele>708.15</ele>
        <time>2020-12-17T10:14:24Z</time>
      </trkpt>
      <trkpt lat="43.38441" lon="2.36949">
        <ele>710.07</ele>
        <time>2020-12-17T10:14:41Z</time>
      </trkpt>
      <trkpt lat="43.38451" lon="2.36951">
        <ele>712.47</ele>
        <time>2020-12-17T10:14:55Z</time>
      </trkpt>
      <trkpt lat="43.38462" lon="2.36955">
        <ele>714.4</ele>
        <time>2020-12-17T10:15:10Z</time>
      </trkpt>
      <trkpt lat="43.38473" lon="2.36958">
        <ele>717.28</ele>
        <time>2020-12-17T10:15:26Z</time>
      </trkpt>
      <trkpt lat="43.38481" lon="2.3696">
        <ele>719.2</ele>
        <time>2020-12-17T10:15:44Z</time>
      </trkpt>
      <trkpt lat="43.3849" lon="2.36968">
        <ele>722.09</ele>
        <time>2020-12-17T10:16:00Z</time>
      </trkpt>
      <trkpt lat="43.38496" lon="2.36973">
        <ele>724.97</ele>
        <time>2020-12-17T10:17:27Z</time>
      </trkpt>
      <trkpt lat="43.38507" lon="2.3698">
        <ele>728.34</ele>
        <time>2020-12-17T10:17:43Z</time>
      </trkpt>
      <trkpt lat="43.38518" lon="2.3698">
        <ele>731.22</ele>
        <time>2020-12-17T10:17:59Z</time>
      </trkpt>
      <trkpt lat="43.38529" lon="2.36976">
        <ele>734.1</ele>
        <time>2020-12-17T10:18:17Z</time>
      </trkpt>
      <trkpt lat="43.3854" lon="2.36973">
        <ele>736.03</ele>
        <time>2020-12-17T10:18:31Z</time>
      </trkpt>
      <trkpt lat="43.3855" lon="2.3697">
        <ele>738.43</ele>
        <time>2020-12-17T10:18:46Z</time>
      </trkpt>
      <trkpt lat="43.3856" lon="2.36972">
        <ele>740.35</ele>
        <time>2020-12-17T10:19:01Z</time>
      </trkpt>
      <trkpt lat="43.38568" lon="2.36983">
        <ele>742.76</ele>
        <time>2020-12-17T10:19:16Z</time>
      </trkpt>
      <trkpt lat="43.38573" lon="2.36996">
        <ele>745.16</ele>
        <time>2020-12-17T10:19:32Z</time>
      </trkpt>
      <trkpt lat="43.38575" lon="2.3701">
        <ele>747.56</ele>
        <time>2020-12-17T10:19:46Z</time>
      </trkpt>
      <trkpt lat="43.38584" lon="2.37017">
        <ele>748.04</ele>
        <time>2020-12-17T10:19:57Z</time>
      </trkpt>
      <trkpt lat="43.38593" lon="2.37026">
        <ele>748.52</ele>
        <time>2020-12-17T10:20:07Z</time>
      </trkpt>
      <trkpt lat="43.38607" lon="2.37033">
        <ele>749</ele>
        <time>2020-12-17T10:20:19Z</time>
      </trkpt>
      <trkpt lat="43.38617" lon="2.37043">
        <ele>749.97</ele>
        <time>2020-12-17T10:20:32Z</time>
      </trkpt>
      <trkpt lat="43.38625" lon="2.37054">
        <ele>749.97</ele>
        <time>2020-12-17T10:20:44Z</time>
      </trkpt>
      <trkpt lat="43.38633" lon="2.37065">
        <ele>749.97</ele>
        <time>2020-12-17T10:20:56Z</time>
      </trkpt>
      <trkpt lat="43.38641" lon="2.37074">
        <ele>750.45</ele>
        <time>2020-12-17T10:21:07Z</time>
      </trkpt>
      <trkpt lat="43.38652" lon="2.37083">
        <ele>751.41</ele>
        <time>2020-12-17T10:21:20Z</time>
      </trkpt>
      <trkpt lat="43.38662" lon="2.37083">
        <ele>751.89</ele>
        <time>2020-12-17T10:21:33Z</time>
      </trkpt>
      <trkpt lat="43.3869" lon="2.37082">
        <ele>755.25</ele>
        <time>2020-12-17T10:22:01Z</time>
      </trkpt>
      <trkpt lat="43.38702" lon="2.37095">
        <ele>757.66</ele>
        <time>2020-12-17T10:22:17Z</time>
      </trkpt>
      <trkpt lat="43.38707" lon="2.3711">
        <ele>759.58</ele>
        <time>2020-12-17T10:22:30Z</time>
      </trkpt>
      <trkpt lat="43.38716" lon="2.37119">
        <ele>761.5</ele>
        <time>2020-12-17T10:22:44Z</time>
      </trkpt>
      <trkpt lat="43.3872" lon="2.37133">
        <ele>762.46</ele>
        <time>2020-12-17T10:22:59Z</time>
      </trkpt>
      <trkpt lat="43.38729" lon="2.37144">
        <ele>764.87</ele>
        <time>2020-12-17T10:23:14Z</time>
      </trkpt>
      <trkpt lat="43.38739" lon="2.37153">
        <ele>766.79</ele>
        <time>2020-12-17T10:23:31Z</time>
      </trkpt>
      <trkpt lat="43.38753" lon="2.37155">
        <ele>770.15</ele>
        <time>2020-12-17T10:23:54Z</time>
      </trkpt>
      <trkpt lat="43.38761" lon="2.3717">
        <ele>772.08</ele>
        <time>2020-12-17T10:24:11Z</time>
      </trkpt>
      <trkpt lat="43.38774" lon="2.37185">
        <ele>773.52</ele>
        <time>2020-12-17T10:24:29Z</time>
      </trkpt>
      <trkpt lat="43.38779" lon="2.37201">
        <ele>774.96</ele>
        <time>2020-12-17T10:24:46Z</time>
      </trkpt>
      <trkpt lat="43.38781" lon="2.37216">
        <ele>773.52</ele>
        <time>2020-12-17T10:25:02Z</time>
      </trkpt>
      <trkpt lat="43.38779" lon="2.37256">
        <ele>770.15</ele>
        <time>2020-12-17T10:25:41Z</time>
      </trkpt>
      <trkpt lat="43.38755" lon="2.37293">
        <ele>769.67</ele>
        <time>2020-12-17T10:26:08Z</time>
      </trkpt>
      <trkpt lat="43.38741" lon="2.37317">
        <ele>769.19</ele>
        <time>2020-12-17T10:26:29Z</time>
      </trkpt>
      <trkpt lat="43.38726" lon="2.37343">
        <ele>768.71</ele>
        <time>2020-12-17T10:26:52Z</time>
      </trkpt>
      <trkpt lat="43.38708" lon="2.37366">
        <ele>767.75</ele>
        <time>2020-12-17T10:27:12Z</time>
      </trkpt>
      <trkpt lat="43.38696" lon="2.37385">
        <ele>767.75</ele>
        <time>2020-12-17T10:27:22Z</time>
      </trkpt>
      <trkpt lat="43.38695" lon="2.37405">
        <ele>767.75</ele>
        <time>2020-12-17T10:27:31Z</time>
      </trkpt>
      <trkpt lat="43.38698" lon="2.37421">
        <ele>768.23</ele>
        <time>2020-12-17T10:27:42Z</time>
      </trkpt>
      <trkpt lat="43.38702" lon="2.37438">
        <ele>768.23</ele>
        <time>2020-12-17T10:27:54Z</time>
      </trkpt>
      <trkpt lat="43.38705" lon="2.37456">
        <ele>768.23</ele>
        <time>2020-12-17T10:28:05Z</time>
      </trkpt>
      <trkpt lat="43.38709" lon="2.37477">
        <ele>768.71</ele>
        <time>2020-12-17T10:28:17Z</time>
      </trkpt>
      <trkpt lat="43.38715" lon="2.37492">
        <ele>768.71</ele>
        <time>2020-12-17T10:28:28Z</time>
      </trkpt>
      <trkpt lat="43.38719" lon="2.37507">
        <ele>768.71</ele>
        <time>2020-12-17T10:28:38Z</time>
      </trkpt>
      <trkpt lat="43.38718" lon="2.37517">
        <ele>769.19</ele>
        <time>2020-12-17T10:29:14Z</time>
      </trkpt>
      <trkpt lat="43.38715" lon="2.37508">
        <ele>769.67</ele>
        <time>2020-12-17T10:31:16Z</time>
      </trkpt>
      <trkpt lat="43.38721" lon="2.37529">
        <ele>769.67</ele>
        <time>2020-12-17T10:31:39Z</time>
      </trkpt>
      <trkpt lat="43.38723" lon="2.37551">
        <ele>769.67</ele>
        <time>2020-12-17T10:32:24Z</time>
      </trkpt>
      <trkpt lat="43.38727" lon="2.37565">
        <ele>769.19</ele>
        <time>2020-12-17T10:32:35Z</time>
      </trkpt>
      <trkpt lat="43.38732" lon="2.37581">
        <ele>768.71</ele>
        <time>2020-12-17T10:32:48Z</time>
      </trkpt>
      <trkpt lat="43.38737" lon="2.37596">
        <ele>767.75</ele>
        <time>2020-12-17T10:33:03Z</time>
      </trkpt>
      <trkpt lat="43.3874" lon="2.37598">
        <ele>767.27</ele>
        <time>2020-12-17T10:33:30Z</time>
      </trkpt>
      <trkpt lat="43.3875" lon="2.37596">
        <ele>768.23</ele>
        <time>2020-12-17T10:33:40Z</time>
      </trkpt>
      <trkpt lat="43.38757" lon="2.37586">
        <ele>768.71</ele>
        <time>2020-12-17T10:33:52Z</time>
      </trkpt>
      <trkpt lat="43.38763" lon="2.37574">
        <ele>770.63</ele>
        <time>2020-12-17T10:34:05Z</time>
      </trkpt>
      <trkpt lat="43.38766" lon="2.37555">
        <ele>772.08</ele>
        <time>2020-12-17T10:34:21Z</time>
      </trkpt>
      <trkpt lat="43.38773" lon="2.37534">
        <ele>773.52</ele>
        <time>2020-12-17T10:34:39Z</time>
      </trkpt>
      <trkpt lat="43.38778" lon="2.37511">
        <ele>774.96</ele>
        <time>2020-12-17T10:34:57Z</time>
      </trkpt>
      <trkpt lat="43.38789" lon="2.37485">
        <ele>775.44</ele>
        <time>2020-12-17T10:35:21Z</time>
      </trkpt>
      <trkpt lat="43.38792" lon="2.37475">
        <ele>774.48</ele>
        <time>2020-12-17T10:35:54Z</time>
      </trkpt>
      <trkpt lat="43.38792" lon="2.37456">
        <ele>775.92</ele>
        <time>2020-12-17T10:37:05Z</time>
      </trkpt>
      <trkpt lat="43.38798" lon="2.37458">
        <ele>776.88</ele>
        <time>2020-12-17T10:37:18Z</time>
      </trkpt>
      <trkpt lat="43.38802" lon="2.37448">
        <ele>777.36</ele>
        <time>2020-12-17T10:37:30Z</time>
      </trkpt>
      <trkpt lat="43.38808" lon="2.37434">
        <ele>777.84</ele>
        <time>2020-12-17T10:37:43Z</time>
      </trkpt>
      <trkpt lat="43.38816" lon="2.37415">
        <ele>778.81</ele>
        <time>2020-12-17T10:37:59Z</time>
      </trkpt>
      <trkpt lat="43.38821" lon="2.37401">
        <ele>779.29</ele>
        <time>2020-12-17T10:38:09Z</time>
      </trkpt>
      <trkpt lat="43.38827" lon="2.3739">
        <ele>779.29</ele>
        <time>2020-12-17T10:38:18Z</time>
      </trkpt>
      <trkpt lat="43.38834" lon="2.37378">
        <ele>779.29</ele>
        <time>2020-12-17T10:38:29Z</time>
      </trkpt>
      <trkpt lat="43.38843" lon="2.37366">
        <ele>779.77</ele>
        <time>2020-12-17T10:38:42Z</time>
      </trkpt>
      <trkpt lat="43.38853" lon="2.37353">
        <ele>779.77</ele>
        <time>2020-12-17T10:38:52Z</time>
      </trkpt>
      <trkpt lat="43.38862" lon="2.37337">
        <ele>779.77</ele>
        <time>2020-12-17T10:39:03Z</time>
      </trkpt>
      <trkpt lat="43.38869" lon="2.37324">
        <ele>779.77</ele>
        <time>2020-12-17T10:39:13Z</time>
      </trkpt>
      <trkpt lat="43.38877" lon="2.37312">
        <ele>779.77</ele>
        <time>2020-12-17T10:39:24Z</time>
      </trkpt>
      <trkpt lat="43.38885" lon="2.373">
        <ele>779.77</ele>
        <time>2020-12-17T10:39:34Z</time>
      </trkpt>
      <trkpt lat="43.38894" lon="2.3729">
        <ele>780.25</ele>
        <time>2020-12-17T10:39:45Z</time>
      </trkpt>
      <trkpt lat="43.38902" lon="2.37281">
        <ele>780.25</ele>
        <time>2020-12-17T10:39:54Z</time>
      </trkpt>
      <trkpt lat="43.38911" lon="2.37272">
        <ele>780.25</ele>
        <time>2020-12-17T10:40:03Z</time>
      </trkpt>
      <trkpt lat="43.3892" lon="2.37264">
        <ele>780.25</ele>
        <time>2020-12-17T10:40:12Z</time>
      </trkpt>
      <trkpt lat="43.38929" lon="2.37256">
        <ele>780.25</ele>
        <time>2020-12-17T10:40:21Z</time>
      </trkpt>
      <trkpt lat="43.38938" lon="2.37248">
        <ele>780.73</ele>
        <time>2020-12-17T10:40:30Z</time>
      </trkpt>
      <trkpt lat="43.38946" lon="2.37241">
        <ele>780.73</ele>
        <time>2020-12-17T10:40:38Z</time>
      </trkpt>
      <trkpt lat="43.38956" lon="2.37232">
        <ele>781.21</ele>
        <time>2020-12-17T10:40:47Z</time>
      </trkpt>
      <trkpt lat="43.38964" lon="2.37222">
        <ele>781.21</ele>
        <time>2020-12-17T10:40:56Z</time>
      </trkpt>
      <trkpt lat="43.38969" lon="2.37207">
        <ele>781.21</ele>
        <time>2020-12-17T10:41:14Z</time>
      </trkpt>
      <trkpt lat="43.38964" lon="2.37202">
        <ele>781.21</ele>
        <time>2020-12-17T10:41:26Z</time>
      </trkpt>
      <trkpt lat="43.38967" lon="2.37209">
        <ele>781.69</ele>
        <time>2020-12-17T10:42:06Z</time>
      </trkpt>
      <trkpt lat="43.38978" lon="2.37206">
        <ele>781.69</ele>
        <time>2020-12-17T10:42:16Z</time>
      </trkpt>
      <trkpt lat="43.38988" lon="2.37196">
        <ele>781.69</ele>
        <time>2020-12-17T10:42:26Z</time>
      </trkpt>
      <trkpt lat="43.38998" lon="2.37185">
        <ele>782.17</ele>
        <time>2020-12-17T10:42:38Z</time>
      </trkpt>
      <trkpt lat="43.39011" lon="2.37172">
        <ele>782.17</ele>
        <time>2020-12-17T10:42:51Z</time>
      </trkpt>
      <trkpt lat="43.3903" lon="2.37161">
        <ele>782.17</ele>
        <time>2020-12-17T10:43:04Z</time>
      </trkpt>
      <trkpt lat="43.39039" lon="2.37152">
        <ele>781.69</ele>
        <time>2020-12-17T10:43:15Z</time>
      </trkpt>
      <trkpt lat="43.39049" lon="2.37143">
        <ele>781.69</ele>
        <time>2020-12-17T10:43:26Z</time>
      </trkpt>
      <trkpt lat="43.39058" lon="2.37133">
        <ele>780.73</ele>
        <time>2020-12-17T10:43:36Z</time>
      </trkpt>
      <trkpt lat="43.3907" lon="2.37124">
        <ele>780.25</ele>
        <time>2020-12-17T10:43:47Z</time>
      </trkpt>
      <trkpt lat="43.39081" lon="2.37113">
        <ele>779.77</ele>
        <time>2020-12-17T10:44:00Z</time>
      </trkpt>
      <trkpt lat="43.39092" lon="2.3711">
        <ele>779.29</ele>
        <time>2020-12-17T10:44:10Z</time>
      </trkpt>
      <trkpt lat="43.39107" lon="2.37101">
        <ele>778.32</ele>
        <time>2020-12-17T10:44:20Z</time>
      </trkpt>
      <trkpt lat="43.39118" lon="2.37094">
        <ele>777.84</ele>
        <time>2020-12-17T10:44:31Z</time>
      </trkpt>
      <trkpt lat="43.39127" lon="2.37085">
        <ele>776.4</ele>
        <time>2020-12-17T10:44:43Z</time>
      </trkpt>
      <trkpt lat="43.3914" lon="2.37077">
        <ele>775.92</ele>
        <time>2020-12-17T10:44:52Z</time>
      </trkpt>
      <trkpt lat="43.39149" lon="2.37071">
        <ele>775.92</ele>
        <time>2020-12-17T10:45:02Z</time>
      </trkpt>
      <trkpt lat="43.39159" lon="2.37065">
        <ele>774.96</ele>
        <time>2020-12-17T10:45:22Z</time>
      </trkpt>
      <trkpt lat="43.39173" lon="2.37057">
        <ele>774.48</ele>
        <time>2020-12-17T10:45:32Z</time>
      </trkpt>
      <trkpt lat="43.39184" lon="2.37051">
        <ele>774.48</ele>
        <time>2020-12-17T10:45:42Z</time>
      </trkpt>
      <trkpt lat="43.39194" lon="2.37046">
        <ele>774</ele>
        <time>2020-12-17T10:45:51Z</time>
      </trkpt>
      <trkpt lat="43.39204" lon="2.37039">
        <ele>774</ele>
        <time>2020-12-17T10:45:59Z</time>
      </trkpt>
      <trkpt lat="43.39215" lon="2.37037">
        <ele>774</ele>
        <time>2020-12-17T10:46:07Z</time>
      </trkpt>
      <trkpt lat="43.39225" lon="2.37032">
        <ele>774</ele>
        <time>2020-12-17T10:46:15Z</time>
      </trkpt>
      <trkpt lat="43.39233" lon="2.37027">
        <ele>774</ele>
        <time>2020-12-17T10:46:23Z</time>
      </trkpt>
      <trkpt lat="43.39242" lon="2.37021">
        <ele>774</ele>
        <time>2020-12-17T10:46:31Z</time>
      </trkpt>
      <trkpt lat="43.39252" lon="2.37016">
        <ele>774</ele>
        <time>2020-12-17T10:46:39Z</time>
      </trkpt>
      <trkpt lat="43.39261" lon="2.37011">
        <ele>774.48</ele>
        <time>2020-12-17T10:46:47Z</time>
      </trkpt>
      <trkpt lat="43.3927" lon="2.37006">
        <ele>774</ele>
        <time>2020-12-17T10:46:55Z</time>
      </trkpt>
      <trkpt lat="43.3928" lon="2.37001">
        <ele>774.48</ele>
        <time>2020-12-17T10:47:04Z</time>
      </trkpt>
      <trkpt lat="43.39289" lon="2.36995">
        <ele>774.48</ele>
        <time>2020-12-17T10:47:12Z</time>
      </trkpt>
      <trkpt lat="43.39298" lon="2.3699">
        <ele>774.96</ele>
        <time>2020-12-17T10:47:20Z</time>
      </trkpt>
      <trkpt lat="43.39306" lon="2.36985">
        <ele>774.96</ele>
        <time>2020-12-17T10:47:28Z</time>
      </trkpt>
      <trkpt lat="43.39316" lon="2.3698">
        <ele>774.96</ele>
        <time>2020-12-17T10:47:37Z</time>
      </trkpt>
      <trkpt lat="43.39325" lon="2.36975">
        <ele>775.44</ele>
        <time>2020-12-17T10:47:46Z</time>
      </trkpt>
      <trkpt lat="43.39335" lon="2.3697">
        <ele>775.92</ele>
        <time>2020-12-17T10:47:55Z</time>
      </trkpt>
      <trkpt lat="43.39345" lon="2.36965">
        <ele>776.4</ele>
        <time>2020-12-17T10:48:04Z</time>
      </trkpt>
      <trkpt lat="43.39354" lon="2.36959">
        <ele>776.4</ele>
        <time>2020-12-17T10:48:12Z</time>
      </trkpt>
      <trkpt lat="43.39363" lon="2.36955">
        <ele>776.4</ele>
        <time>2020-12-17T10:48:21Z</time>
      </trkpt>
      <trkpt lat="43.39372" lon="2.36949">
        <ele>777.36</ele>
        <time>2020-12-17T10:48:30Z</time>
      </trkpt>
      <trkpt lat="43.39381" lon="2.36947">
        <ele>778.81</ele>
        <time>2020-12-17T10:48:53Z</time>
      </trkpt>
      <trkpt lat="43.39391" lon="2.36958">
        <ele>779.29</ele>
        <time>2020-12-17T10:49:03Z</time>
      </trkpt>
      <trkpt lat="43.39399" lon="2.36966">
        <ele>779.77</ele>
        <time>2020-12-17T10:49:12Z</time>
      </trkpt>
      <trkpt lat="43.39409" lon="2.36971">
        <ele>779.77</ele>
        <time>2020-12-17T10:49:21Z</time>
      </trkpt>
      <trkpt lat="43.3942" lon="2.36975">
        <ele>779.77</ele>
        <time>2020-12-17T10:49:31Z</time>
      </trkpt>
      <trkpt lat="43.39428" lon="2.36982">
        <ele>780.73</ele>
        <time>2020-12-17T10:52:24Z</time>
      </trkpt>
      <trkpt lat="43.39436" lon="2.36984">
        <ele>781.21</ele>
        <time>2020-12-17T10:52:46Z</time>
      </trkpt>
      <trkpt lat="43.39444" lon="2.36989">
        <ele>781.21</ele>
        <time>2020-12-17T10:52:56Z</time>
      </trkpt>
      <trkpt lat="43.39453" lon="2.36993">
        <ele>781.69</ele>
        <time>2020-12-17T10:53:05Z</time>
      </trkpt>
      <trkpt lat="43.39463" lon="2.37">
        <ele>781.69</ele>
        <time>2020-12-17T10:53:14Z</time>
      </trkpt>
      <trkpt lat="43.39472" lon="2.37006">
        <ele>781.21</ele>
        <time>2020-12-17T10:53:23Z</time>
      </trkpt>
      <trkpt lat="43.39482" lon="2.3701">
        <ele>780.73</ele>
        <time>2020-12-17T10:53:32Z</time>
      </trkpt>
      <trkpt lat="43.3949" lon="2.37014">
        <ele>780.73</ele>
        <time>2020-12-17T10:53:40Z</time>
      </trkpt>
      <trkpt lat="43.395" lon="2.37021">
        <ele>780.25</ele>
        <time>2020-12-17T10:53:48Z</time>
      </trkpt>
      <trkpt lat="43.39509" lon="2.37027">
        <ele>780.25</ele>
        <time>2020-12-17T10:53:56Z</time>
      </trkpt>
      <trkpt lat="43.39518" lon="2.37033">
        <ele>779.29</ele>
        <time>2020-12-17T10:54:04Z</time>
      </trkpt>
      <trkpt lat="43.39527" lon="2.37039">
        <ele>778.81</ele>
        <time>2020-12-17T10:54:12Z</time>
      </trkpt>
      <trkpt lat="43.39537" lon="2.37046">
        <ele>778.32</ele>
        <time>2020-12-17T10:54:22Z</time>
      </trkpt>
      <trkpt lat="43.39546" lon="2.3705">
        <ele>777.36</ele>
        <time>2020-12-17T10:54:31Z</time>
      </trkpt>
      <trkpt lat="43.39556" lon="2.37054">
        <ele>776.4</ele>
        <time>2020-12-17T10:54:40Z</time>
      </trkpt>
      <trkpt lat="43.39566" lon="2.37058">
        <ele>775.44</ele>
        <time>2020-12-17T10:54:49Z</time>
      </trkpt>
      <trkpt lat="43.39576" lon="2.37061">
        <ele>774.48</ele>
        <time>2020-12-17T10:54:58Z</time>
      </trkpt>
      <trkpt lat="43.39587" lon="2.37064">
        <ele>774</ele>
        <time>2020-12-17T10:55:08Z</time>
      </trkpt>
      <trkpt lat="43.39597" lon="2.37066">
        <ele>773.04</ele>
        <time>2020-12-17T10:55:17Z</time>
      </trkpt>
      <trkpt lat="43.39609" lon="2.37065">
        <ele>772.56</ele>
        <time>2020-12-17T10:55:35Z</time>
      </trkpt>
      <trkpt lat="43.3962" lon="2.37058">
        <ele>770.15</ele>
        <time>2020-12-17T10:55:45Z</time>
      </trkpt>
      <trkpt lat="43.39631" lon="2.37053">
        <ele>768.71</ele>
        <time>2020-12-17T10:55:55Z</time>
      </trkpt>
      <trkpt lat="43.39641" lon="2.37047">
        <ele>767.27</ele>
        <time>2020-12-17T10:56:04Z</time>
      </trkpt>
      <trkpt lat="43.3965" lon="2.37041">
        <ele>765.83</ele>
        <time>2020-12-17T10:56:13Z</time>
      </trkpt>
      <trkpt lat="43.3966" lon="2.37033">
        <ele>764.39</ele>
        <time>2020-12-17T10:56:24Z</time>
      </trkpt>
      <trkpt lat="43.39673" lon="2.37022">
        <ele>762.46</ele>
        <time>2020-12-17T10:56:36Z</time>
      </trkpt>
      <trkpt lat="43.39682" lon="2.37011">
        <ele>761.02</ele>
        <time>2020-12-17T10:56:46Z</time>
      </trkpt>
      <trkpt lat="43.3969" lon="2.36999">
        <ele>760.06</ele>
        <time>2020-12-17T10:56:56Z</time>
      </trkpt>
      <trkpt lat="43.39698" lon="2.36988">
        <ele>758.62</ele>
        <time>2020-12-17T10:57:07Z</time>
      </trkpt>
      <trkpt lat="43.39712" lon="2.36975">
        <ele>756.21</ele>
        <time>2020-12-17T10:57:25Z</time>
      </trkpt>
      <trkpt lat="43.39721" lon="2.36965">
        <ele>753.81</ele>
        <time>2020-12-17T10:57:39Z</time>
      </trkpt>
      <trkpt lat="43.39735" lon="2.36953">
        <ele>751.89</ele>
        <time>2020-12-17T10:57:53Z</time>
      </trkpt>
      <trkpt lat="43.39752" lon="2.36949">
        <ele>749.97</ele>
        <time>2020-12-17T10:58:12Z</time>
      </trkpt>
      <trkpt lat="43.39744" lon="2.36969">
        <ele>748.04</ele>
        <time>2020-12-17T10:58:28Z</time>
      </trkpt>
      <trkpt lat="43.39736" lon="2.36987">
        <ele>747.56</ele>
        <time>2020-12-17T10:58:41Z</time>
      </trkpt>
      <trkpt lat="43.39727" lon="2.37001">
        <ele>747.08</ele>
        <time>2020-12-17T10:58:54Z</time>
      </trkpt>
      <trkpt lat="43.39725" lon="2.37018">
        <ele>746.12</ele>
        <time>2020-12-17T10:59:03Z</time>
      </trkpt>
      <trkpt lat="43.39709" lon="2.37043">
        <ele>745.16</ele>
        <time>2020-12-17T10:59:36Z</time>
      </trkpt>
      <trkpt lat="43.39695" lon="2.37059">
        <ele>744.2</ele>
        <time>2020-12-17T10:59:57Z</time>
      </trkpt>
      <trkpt lat="43.39694" lon="2.37076">
        <ele>743.24</ele>
        <time>2020-12-17T11:00:10Z</time>
      </trkpt>
      <trkpt lat="43.39705" lon="2.37093">
        <ele>741.79</ele>
        <time>2020-12-17T11:00:29Z</time>
      </trkpt>
      <trkpt lat="43.3971" lon="2.37098">
        <ele>740.35</ele>
        <time>2020-12-17T11:02:43Z</time>
      </trkpt>
      <trkpt lat="43.3972" lon="2.371">
        <ele>740.35</ele>
        <time>2020-12-17T11:03:45Z</time>
      </trkpt>
      <trkpt lat="43.39713" lon="2.37101">
        <ele>740.83</ele>
        <time>2020-12-17T11:05:37Z</time>
      </trkpt>
      <trkpt lat="43.39715" lon="2.37095">
        <ele>741.31</ele>
        <time>2020-12-17T11:06:26Z</time>
      </trkpt>
      <trkpt lat="43.39709" lon="2.3711">
        <ele>741.79</ele>
        <time>2020-12-17T11:07:28Z</time>
      </trkpt>
      <trkpt lat="43.39693" lon="2.37083">
        <ele>743.72</ele>
        <time>2020-12-17T11:08:07Z</time>
      </trkpt>
      <trkpt lat="43.39687" lon="2.37099">
        <ele>743.24</ele>
        <time>2020-12-17T11:10:13Z</time>
      </trkpt>
      <trkpt lat="43.39674" lon="2.37105">
        <ele>742.28</ele>
        <time>2020-12-17T11:10:24Z</time>
      </trkpt>
      <trkpt lat="43.39664" lon="2.37113">
        <ele>740.35</ele>
        <time>2020-12-17T11:10:39Z</time>
      </trkpt>
      <trkpt lat="43.39663" lon="2.37124">
        <ele>739.39</ele>
        <time>2020-12-17T11:11:09Z</time>
      </trkpt>
      <trkpt lat="43.39654" lon="2.37126">
        <ele>736.99</ele>
        <time>2020-12-17T11:11:38Z</time>
      </trkpt>
      <trkpt lat="43.39647" lon="2.37138">
        <ele>733.62</ele>
        <time>2020-12-17T11:11:53Z</time>
      </trkpt>
      <trkpt lat="43.39655" lon="2.37134">
        <ele>731.22</ele>
        <time>2020-12-17T11:12:12Z</time>
      </trkpt>
      <trkpt lat="43.39671" lon="2.37139">
        <ele>731.7</ele>
        <time>2020-12-17T11:12:45Z</time>
      </trkpt>
      <trkpt lat="43.39681" lon="2.3714">
        <ele>734.58</ele>
        <time>2020-12-17T11:13:42Z</time>
      </trkpt>
      <trkpt lat="43.39689" lon="2.37153">
        <ele>734.1</ele>
        <time>2020-12-17T11:13:54Z</time>
      </trkpt>
      <trkpt lat="43.39705" lon="2.37148">
        <ele>737.47</ele>
        <time>2020-12-17T11:14:13Z</time>
      </trkpt>
      <trkpt lat="43.39709" lon="2.37133">
        <ele>739.39</ele>
        <time>2020-12-17T11:14:30Z</time>
      </trkpt>
      <trkpt lat="43.39721" lon="2.37125">
        <ele>739.87</ele>
        <time>2020-12-17T11:15:01Z</time>
      </trkpt>
      <trkpt lat="43.3972" lon="2.37111">
        <ele>740.83</ele>
        <time>2020-12-17T11:15:11Z</time>
      </trkpt>
      <trkpt lat="43.39713" lon="2.37102">
        <ele>741.31</ele>
        <time>2020-12-17T11:15:22Z</time>
      </trkpt>
      <trkpt lat="43.39702" lon="2.37086">
        <ele>743.24</ele>
        <time>2020-12-17T11:15:45Z</time>
      </trkpt>
      <trkpt lat="43.39699" lon="2.37065">
        <ele>744.68</ele>
        <time>2020-12-17T11:15:59Z</time>
      </trkpt>
      <trkpt lat="43.39708" lon="2.37048">
        <ele>744.68</ele>
        <time>2020-12-17T11:16:10Z</time>
      </trkpt>
      <trkpt lat="43.39718" lon="2.37036">
        <ele>745.16</ele>
        <time>2020-12-17T11:16:22Z</time>
      </trkpt>
      <trkpt lat="43.3973" lon="2.37012">
        <ele>746.12</ele>
        <time>2020-12-17T11:16:40Z</time>
      </trkpt>
      <trkpt lat="43.39737" lon="2.3699">
        <ele>747.08</ele>
        <time>2020-12-17T11:16:56Z</time>
      </trkpt>
      <trkpt lat="43.39749" lon="2.36965">
        <ele>747.56</ele>
        <time>2020-12-17T11:17:15Z</time>
      </trkpt>
      <trkpt lat="43.39757" lon="2.36952">
        <ele>744.68</ele>
        <time>2020-12-17T11:17:32Z</time>
      </trkpt>
      <trkpt lat="43.39771" lon="2.36938">
        <ele>742.76</ele>
        <time>2020-12-17T11:17:46Z</time>
      </trkpt>
      <trkpt lat="43.39786" lon="2.36919">
        <ele>739.87</ele>
        <time>2020-12-17T11:18:05Z</time>
      </trkpt>
      <trkpt lat="43.398" lon="2.36901">
        <ele>738.43</ele>
        <time>2020-12-17T11:18:20Z</time>
      </trkpt>
      <trkpt lat="43.39817" lon="2.36879">
        <ele>734.58</ele>
        <time>2020-12-17T11:18:38Z</time>
      </trkpt>
      <trkpt lat="43.39819" lon="2.36862">
        <ele>733.14</ele>
        <time>2020-12-17T11:18:54Z</time>
      </trkpt>
      <trkpt lat="43.39835" lon="2.36837">
        <ele>731.22</ele>
        <time>2020-12-17T11:19:10Z</time>
      </trkpt>
      <trkpt lat="43.39845" lon="2.36822">
        <ele>729.78</ele>
        <time>2020-12-17T11:19:39Z</time>
      </trkpt>
      <trkpt lat="43.3986" lon="2.36818">
        <ele>728.34</ele>
        <time>2020-12-17T11:20:15Z</time>
      </trkpt>
      <trkpt lat="43.39841" lon="2.36824">
        <ele>730.26</ele>
        <time>2020-12-17T11:21:06Z</time>
      </trkpt>
      <trkpt lat="43.39833" lon="2.3685">
        <ele>731.22</ele>
        <time>2020-12-17T11:21:42Z</time>
      </trkpt>
      <trkpt lat="43.39826" lon="2.3687">
        <ele>730.26</ele>
        <time>2020-12-17T11:21:57Z</time>
      </trkpt>
      <trkpt lat="43.39826" lon="2.36894">
        <ele>729.3</ele>
        <time>2020-12-17T11:22:42Z</time>
      </trkpt>
      <trkpt lat="43.39817" lon="2.36911">
        <ele>726.89</ele>
        <time>2020-12-17T11:22:58Z</time>
      </trkpt>
      <trkpt lat="43.39811" lon="2.36928">
        <ele>724.01</ele>
        <time>2020-12-17T11:23:19Z</time>
      </trkpt>
      <trkpt lat="43.39817" lon="2.36914">
        <ele>724.49</ele>
        <time>2020-12-17T11:23:52Z</time>
      </trkpt>
      <trkpt lat="43.3983" lon="2.36916">
        <ele>724.97</ele>
        <time>2020-12-17T11:24:12Z</time>
      </trkpt>
      <trkpt lat="43.39825" lon="2.36933">
        <ele>726.41</ele>
        <time>2020-12-17T11:24:27Z</time>
      </trkpt>
      <trkpt lat="43.39809" lon="2.36963">
        <ele>727.86</ele>
        <time>2020-12-17T11:25:54Z</time>
      </trkpt>
      <trkpt lat="43.39808" lon="2.36979">
        <ele>727.86</ele>
        <time>2020-12-17T11:26:08Z</time>
      </trkpt>
      <trkpt lat="43.39803" lon="2.36998">
        <ele>727.37</ele>
        <time>2020-12-17T11:26:21Z</time>
      </trkpt>
      <trkpt lat="43.39801" lon="2.37006">
        <ele>727.37</ele>
        <time>2020-12-17T11:26:37Z</time>
      </trkpt>
      <trkpt lat="43.39812" lon="2.3699">
        <ele>730.26</ele>
        <time>2020-12-17T11:26:53Z</time>
      </trkpt>
      <trkpt lat="43.3982" lon="2.36978">
        <ele>731.22</ele>
        <time>2020-12-17T11:27:04Z</time>
      </trkpt>
      <trkpt lat="43.39828" lon="2.36966">
        <ele>732.18</ele>
        <time>2020-12-17T11:27:17Z</time>
      </trkpt>
      <trkpt lat="43.39835" lon="2.36954">
        <ele>733.62</ele>
        <time>2020-12-17T11:27:28Z</time>
      </trkpt>
      <trkpt lat="43.39839" lon="2.36942">
        <ele>734.1</ele>
        <time>2020-12-17T11:27:38Z</time>
      </trkpt>
      <trkpt lat="43.39843" lon="2.36937">
        <ele>735.55</ele>
        <time>2020-12-17T11:28:06Z</time>
      </trkpt>
      <trkpt lat="43.39844" lon="2.36939">
        <ele>740.83</ele>
        <time>2020-12-17T11:48:40Z</time>
      </trkpt>
      <trkpt lat="43.39841" lon="2.36919">
        <ele>741.79</ele>
        <time>2020-12-17T11:56:29Z</time>
      </trkpt>
      <trkpt lat="43.39848" lon="2.36908">
        <ele>742.28</ele>
        <time>2020-12-17T11:56:40Z</time>
      </trkpt>
      <trkpt lat="43.39854" lon="2.36895">
        <ele>743.72</ele>
        <time>2020-12-17T11:56:55Z</time>
      </trkpt>
      <trkpt lat="43.39853" lon="2.36917">
        <ele>746.12</ele>
        <time>2020-12-17T11:57:12Z</time>
      </trkpt>
      <trkpt lat="43.39852" lon="2.36936">
        <ele>749</ele>
        <time>2020-12-17T11:57:28Z</time>
      </trkpt>
      <trkpt lat="43.39851" lon="2.36953">
        <ele>750.93</ele>
        <time>2020-12-17T11:57:41Z</time>
      </trkpt>
      <trkpt lat="43.39851" lon="2.36968">
        <ele>752.37</ele>
        <time>2020-12-17T11:57:53Z</time>
      </trkpt>
      <trkpt lat="43.39851" lon="2.36982">
        <ele>754.29</ele>
        <time>2020-12-17T11:58:05Z</time>
      </trkpt>
      <trkpt lat="43.3985" lon="2.36996">
        <ele>755.73</ele>
        <time>2020-12-17T11:58:17Z</time>
      </trkpt>
      <trkpt lat="43.39848" lon="2.3701">
        <ele>757.66</ele>
        <time>2020-12-17T11:58:28Z</time>
      </trkpt>
      <trkpt lat="43.39849" lon="2.37024">
        <ele>759.1</ele>
        <time>2020-12-17T11:58:38Z</time>
      </trkpt>
      <trkpt lat="43.39851" lon="2.37037">
        <ele>760.54</ele>
        <time>2020-12-17T11:58:49Z</time>
      </trkpt>
      <trkpt lat="43.39855" lon="2.37049">
        <ele>761.98</ele>
        <time>2020-12-17T11:58:59Z</time>
      </trkpt>
      <trkpt lat="43.39859" lon="2.37061">
        <ele>763.42</ele>
        <time>2020-12-17T11:59:09Z</time>
      </trkpt>
      <trkpt lat="43.39864" lon="2.37072">
        <ele>764.87</ele>
        <time>2020-12-17T11:59:20Z</time>
      </trkpt>
      <trkpt lat="43.39872" lon="2.37081">
        <ele>765.83</ele>
        <time>2020-12-17T11:59:30Z</time>
      </trkpt>
      <trkpt lat="43.39879" lon="2.37088">
        <ele>766.31</ele>
        <time>2020-12-17T12:00:26Z</time>
      </trkpt>
      <trkpt lat="43.3989" lon="2.37093">
        <ele>766.31</ele>
        <time>2020-12-17T12:00:35Z</time>
      </trkpt>
      <trkpt lat="43.39901" lon="2.37099">
        <ele>766.31</ele>
        <time>2020-12-17T12:00:44Z</time>
      </trkpt>
      <trkpt lat="43.3991" lon="2.37107">
        <ele>766.31</ele>
        <time>2020-12-17T12:00:53Z</time>
      </trkpt>
      <trkpt lat="43.39918" lon="2.37118">
        <ele>765.83</ele>
        <time>2020-12-17T12:01:03Z</time>
      </trkpt>
      <trkpt lat="43.39925" lon="2.37131">
        <ele>764.39</ele>
        <time>2020-12-17T12:01:13Z</time>
      </trkpt>
      <trkpt lat="43.39932" lon="2.37146">
        <ele>763.42</ele>
        <time>2020-12-17T12:01:24Z</time>
      </trkpt>
      <trkpt lat="43.39941" lon="2.37157">
        <ele>762.94</ele>
        <time>2020-12-17T12:01:35Z</time>
      </trkpt>
      <trkpt lat="43.39952" lon="2.37165">
        <ele>762.46</ele>
        <time>2020-12-17T12:01:45Z</time>
      </trkpt>
      <trkpt lat="43.39962" lon="2.37168">
        <ele>761.98</ele>
        <time>2020-12-17T12:01:53Z</time>
      </trkpt>
      <trkpt lat="43.39972" lon="2.37168">
        <ele>761.5</ele>
        <time>2020-12-17T12:02:03Z</time>
      </trkpt>
      <trkpt lat="43.39985" lon="2.37171">
        <ele>759.58</ele>
        <time>2020-12-17T12:02:14Z</time>
      </trkpt>
      <trkpt lat="43.39996" lon="2.37177">
        <ele>758.14</ele>
        <time>2020-12-17T12:02:24Z</time>
      </trkpt>
      <trkpt lat="43.40007" lon="2.37186">
        <ele>756.21</ele>
        <time>2020-12-17T12:02:36Z</time>
      </trkpt>
      <trkpt lat="43.40028" lon="2.37192">
        <ele>752.85</ele>
        <time>2020-12-17T12:02:53Z</time>
      </trkpt>
      <trkpt lat="43.40041" lon="2.37204">
        <ele>751.41</ele>
        <time>2020-12-17T12:03:04Z</time>
      </trkpt>
      <trkpt lat="43.40048" lon="2.37218">
        <ele>750.93</ele>
        <time>2020-12-17T12:03:13Z</time>
      </trkpt>
      <trkpt lat="43.40054" lon="2.37234">
        <ele>750.45</ele>
        <time>2020-12-17T12:03:21Z</time>
      </trkpt>
      <trkpt lat="43.40059" lon="2.37246">
        <ele>749.49</ele>
        <time>2020-12-17T12:03:28Z</time>
      </trkpt>
      <trkpt lat="43.40064" lon="2.37261">
        <ele>748.04</ele>
        <time>2020-12-17T12:03:37Z</time>
      </trkpt>
      <trkpt lat="43.40069" lon="2.37274">
        <ele>747.08</ele>
        <time>2020-12-17T12:03:45Z</time>
      </trkpt>
      <trkpt lat="43.40077" lon="2.37282">
        <ele>745.64</ele>
        <time>2020-12-17T12:03:54Z</time>
      </trkpt>
      <trkpt lat="43.40087" lon="2.37289">
        <ele>745.64</ele>
        <time>2020-12-17T12:04:03Z</time>
      </trkpt>
      <trkpt lat="43.40084" lon="2.37301">
        <ele>744.68</ele>
        <time>2020-12-17T12:04:16Z</time>
      </trkpt>
      <trkpt lat="43.40072" lon="2.37313">
        <ele>743.24</ele>
        <time>2020-12-17T12:04:30Z</time>
      </trkpt>
      <trkpt lat="43.40062" lon="2.37326">
        <ele>741.79</ele>
        <time>2020-12-17T12:04:43Z</time>
      </trkpt>
      <trkpt lat="43.40051" lon="2.37339">
        <ele>740.35</ele>
        <time>2020-12-17T12:04:57Z</time>
      </trkpt>
      <trkpt lat="43.4004" lon="2.37349">
        <ele>738.43</ele>
        <time>2020-12-17T12:05:08Z</time>
      </trkpt>
      <trkpt lat="43.40031" lon="2.37364">
        <ele>736.99</ele>
        <time>2020-12-17T12:05:21Z</time>
      </trkpt>
      <trkpt lat="43.40023" lon="2.37377">
        <ele>735.07</ele>
        <time>2020-12-17T12:05:33Z</time>
      </trkpt>
      <trkpt lat="43.40014" lon="2.37391">
        <ele>733.62</ele>
        <time>2020-12-17T12:05:45Z</time>
      </trkpt>
      <trkpt lat="43.40008" lon="2.37407">
        <ele>732.18</ele>
        <time>2020-12-17T12:05:57Z</time>
      </trkpt>
      <trkpt lat="43.4" lon="2.37426">
        <ele>730.26</ele>
        <time>2020-12-17T12:06:11Z</time>
      </trkpt>
      <trkpt lat="43.39992" lon="2.37446">
        <ele>728.34</ele>
        <time>2020-12-17T12:06:26Z</time>
      </trkpt>
      <trkpt lat="43.39986" lon="2.37462">
        <ele>725.93</ele>
        <time>2020-12-17T12:06:43Z</time>
      </trkpt>
      <trkpt lat="43.39978" lon="2.37482">
        <ele>724.01</ele>
        <time>2020-12-17T12:06:57Z</time>
      </trkpt>
      <trkpt lat="43.39968" lon="2.37496">
        <ele>722.57</ele>
        <time>2020-12-17T12:07:09Z</time>
      </trkpt>
      <trkpt lat="43.3996" lon="2.37509">
        <ele>721.13</ele>
        <time>2020-12-17T12:07:20Z</time>
      </trkpt>
      <trkpt lat="43.39952" lon="2.37525">
        <ele>720.65</ele>
        <time>2020-12-17T12:07:32Z</time>
      </trkpt>
      <trkpt lat="43.39944" lon="2.3754">
        <ele>719.2</ele>
        <time>2020-12-17T12:07:46Z</time>
      </trkpt>
      <trkpt lat="43.39944" lon="2.37524">
        <ele>717.28</ele>
        <time>2020-12-17T12:08:02Z</time>
      </trkpt>
      <trkpt lat="43.39948" lon="2.37498">
        <ele>714.4</ele>
        <time>2020-12-17T12:08:24Z</time>
      </trkpt>
      <trkpt lat="43.39944" lon="2.3748">
        <ele>711.99</ele>
        <time>2020-12-17T12:09:13Z</time>
      </trkpt>
      <trkpt lat="43.39935" lon="2.37494">
        <ele>710.55</ele>
        <time>2020-12-17T12:09:36Z</time>
      </trkpt>
      <trkpt lat="43.3993" lon="2.37511">
        <ele>710.07</ele>
        <time>2020-12-17T12:09:50Z</time>
      </trkpt>
      <trkpt lat="43.39924" lon="2.37529">
        <ele>709.11</ele>
        <time>2020-12-17T12:10:02Z</time>
      </trkpt>
      <trkpt lat="43.39918" lon="2.37548">
        <ele>708.63</ele>
        <time>2020-12-17T12:10:16Z</time>
      </trkpt>
      <trkpt lat="43.39914" lon="2.37569">
        <ele>707.67</ele>
        <time>2020-12-17T12:10:30Z</time>
      </trkpt>
      <trkpt lat="43.39911" lon="2.37595">
        <ele>705.75</ele>
        <time>2020-12-17T12:10:47Z</time>
      </trkpt>
      <trkpt lat="43.39906" lon="2.3762">
        <ele>704.3</ele>
        <time>2020-12-17T12:11:01Z</time>
      </trkpt>
      <trkpt lat="43.39905" lon="2.3764">
        <ele>703.82</ele>
        <time>2020-12-17T12:11:14Z</time>
      </trkpt>
      <trkpt lat="43.39907" lon="2.3766">
        <ele>702.86</ele>
        <time>2020-12-17T12:11:28Z</time>
      </trkpt>
      <trkpt lat="43.3991" lon="2.37683">
        <ele>699.98</ele>
        <time>2020-12-17T12:11:51Z</time>
      </trkpt>
      <trkpt lat="43.39908" lon="2.37717">
        <ele>698.53</ele>
        <time>2020-12-17T12:12:12Z</time>
      </trkpt>
      <trkpt lat="43.39905" lon="2.3774">
        <ele>698.53</ele>
        <time>2020-12-17T12:12:28Z</time>
      </trkpt>
      <trkpt lat="43.399" lon="2.37761">
        <ele>698.53</ele>
        <time>2020-12-17T12:12:42Z</time>
      </trkpt>
      <trkpt lat="43.3989" lon="2.3778">
        <ele>698.05</ele>
        <time>2020-12-17T12:12:55Z</time>
      </trkpt>
      <trkpt lat="43.39882" lon="2.37799">
        <ele>697.57</ele>
        <time>2020-12-17T12:13:09Z</time>
      </trkpt>
      <trkpt lat="43.39874" lon="2.37815">
        <ele>697.57</ele>
        <time>2020-12-17T12:13:21Z</time>
      </trkpt>
      <trkpt lat="43.39865" lon="2.37828">
        <ele>697.57</ele>
        <time>2020-12-17T12:13:33Z</time>
      </trkpt>
      <trkpt lat="43.39855" lon="2.3784">
        <ele>698.05</ele>
        <time>2020-12-17T12:13:46Z</time>
      </trkpt>
      <trkpt lat="43.39847" lon="2.37854">
        <ele>698.05</ele>
        <time>2020-12-17T12:13:58Z</time>
      </trkpt>
      <trkpt lat="43.39839" lon="2.3787">
        <ele>698.53</ele>
        <time>2020-12-17T12:14:11Z</time>
      </trkpt>
      <trkpt lat="43.39832" lon="2.37887">
        <ele>699.98</ele>
        <time>2020-12-17T12:14:24Z</time>
      </trkpt>
      <trkpt lat="43.39824" lon="2.37905">
        <ele>700.46</ele>
        <time>2020-12-17T12:14:37Z</time>
      </trkpt>
      <trkpt lat="43.39818" lon="2.37924">
        <ele>701.42</ele>
        <time>2020-12-17T12:14:51Z</time>
      </trkpt>
      <trkpt lat="43.39815" lon="2.37943">
        <ele>701.42</ele>
        <time>2020-12-17T12:15:03Z</time>
      </trkpt>
      <trkpt lat="43.39811" lon="2.37959">
        <ele>701.42</ele>
        <time>2020-12-17T12:15:14Z</time>
      </trkpt>
      <trkpt lat="43.39807" lon="2.37976">
        <ele>701.42</ele>
        <time>2020-12-17T12:15:26Z</time>
      </trkpt>
      <trkpt lat="43.39807" lon="2.37995">
        <ele>699.98</ele>
        <time>2020-12-17T12:15:41Z</time>
      </trkpt>
      <trkpt lat="43.39811" lon="2.38029">
        <ele>696.13</ele>
        <time>2020-12-17T12:16:04Z</time>
      </trkpt>
      <trkpt lat="43.39821" lon="2.38049">
        <ele>694.69</ele>
        <time>2020-12-17T12:16:18Z</time>
      </trkpt>
      <trkpt lat="43.39834" lon="2.38064">
        <ele>692.29</ele>
        <time>2020-12-17T12:16:35Z</time>
      </trkpt>
      <trkpt lat="43.39847" lon="2.381">
        <ele>686.52</ele>
        <time>2020-12-17T12:17:13Z</time>
      </trkpt>
      <trkpt lat="43.39858" lon="2.38114">
        <ele>686.04</ele>
        <time>2020-12-17T12:17:59Z</time>
      </trkpt>
      <trkpt lat="43.3984" lon="2.38131">
        <ele>686.52</ele>
        <time>2020-12-17T12:18:18Z</time>
      </trkpt>
      <trkpt lat="43.39829" lon="2.38145">
        <ele>687.48</ele>
        <time>2020-12-17T12:18:33Z</time>
      </trkpt>
      <trkpt lat="43.39817" lon="2.38158">
        <ele>687.48</ele>
        <time>2020-12-17T12:18:49Z</time>
      </trkpt>
      <trkpt lat="43.39809" lon="2.38172">
        <ele>685.08</ele>
        <time>2020-12-17T12:19:07Z</time>
      </trkpt>
      <trkpt lat="43.39796" lon="2.38188">
        <ele>680.75</ele>
        <time>2020-12-17T12:19:29Z</time>
      </trkpt>
      <trkpt lat="43.39786" lon="2.38206">
        <ele>677.39</ele>
        <time>2020-12-17T12:19:51Z</time>
      </trkpt>
      <trkpt lat="43.39772" lon="2.38224">
        <ele>674.98</ele>
        <time>2020-12-17T12:20:18Z</time>
      </trkpt>
      <trkpt lat="43.39744" lon="2.38237">
        <ele>670.18</ele>
        <time>2020-12-17T12:20:54Z</time>
      </trkpt>
      <trkpt lat="43.39714" lon="2.38245">
        <ele>672.1</ele>
        <time>2020-12-17T12:21:20Z</time>
      </trkpt>
      <trkpt lat="43.39689" lon="2.38254">
        <ele>671.62</ele>
        <time>2020-12-17T12:21:41Z</time>
      </trkpt>
      <trkpt lat="43.39672" lon="2.38261">
        <ele>670.66</ele>
        <time>2020-12-17T12:21:58Z</time>
      </trkpt>
      <trkpt lat="43.39648" lon="2.38264">
        <ele>667.29</ele>
        <time>2020-12-17T12:22:18Z</time>
      </trkpt>
      <trkpt lat="43.39629" lon="2.38279">
        <ele>664.41</ele>
        <time>2020-12-17T12:22:36Z</time>
      </trkpt>
      <trkpt lat="43.39627" lon="2.38298">
        <ele>663.45</ele>
        <time>2020-12-17T12:22:49Z</time>
      </trkpt>
      <trkpt lat="43.39622" lon="2.38323">
        <ele>662.97</ele>
        <time>2020-12-17T12:23:03Z</time>
      </trkpt>
      <trkpt lat="43.39616" lon="2.38341">
        <ele>661.04</ele>
        <time>2020-12-17T12:23:18Z</time>
      </trkpt>
      <trkpt lat="43.39612" lon="2.38354">
        <ele>661.04</ele>
        <time>2020-12-17T12:23:28Z</time>
      </trkpt>
      <trkpt lat="43.39605" lon="2.3837">
        <ele>660.56</ele>
        <time>2020-12-17T12:23:41Z</time>
      </trkpt>
      <trkpt lat="43.39597" lon="2.38366">
        <ele>656.24</ele>
        <time>2020-12-17T12:24:04Z</time>
      </trkpt>
      <trkpt lat="43.39589" lon="2.38344">
        <ele>650.47</ele>
        <time>2020-12-17T12:24:34Z</time>
      </trkpt>
      <trkpt lat="43.39583" lon="2.3836">
        <ele>648.07</ele>
        <time>2020-12-17T12:24:49Z</time>
      </trkpt>
      <trkpt lat="43.39566" lon="2.38373">
        <ele>644.22</ele>
        <time>2020-12-17T12:25:13Z</time>
      </trkpt>
      <trkpt lat="43.39542" lon="2.38392">
        <ele>640.38</ele>
        <time>2020-12-17T12:25:38Z</time>
      </trkpt>
      <trkpt lat="43.39525" lon="2.38413">
        <ele>635.57</ele>
        <time>2020-12-17T12:26:01Z</time>
      </trkpt>
      <trkpt lat="43.39509" lon="2.38435">
        <ele>631.24</ele>
        <time>2020-12-17T12:26:22Z</time>
      </trkpt>
      <trkpt lat="43.39494" lon="2.38453">
        <ele>626.92</ele>
        <time>2020-12-17T12:26:46Z</time>
      </trkpt>
      <trkpt lat="43.39485" lon="2.38472">
        <ele>623.07</ele>
        <time>2020-12-17T12:27:06Z</time>
      </trkpt>
      <trkpt lat="43.39481" lon="2.38491">
        <ele>619.71</ele>
        <time>2020-12-17T12:27:25Z</time>
      </trkpt>
      <trkpt lat="43.39474" lon="2.38512">
        <ele>615.38</ele>
        <time>2020-12-17T12:27:43Z</time>
      </trkpt>
      <trkpt lat="43.39457" lon="2.38535">
        <ele>611.54</ele>
        <time>2020-12-17T12:28:01Z</time>
      </trkpt>
      <trkpt lat="43.39446" lon="2.38552">
        <ele>608.17</ele>
        <time>2020-12-17T12:28:17Z</time>
      </trkpt>
      <trkpt lat="43.3944" lon="2.38566">
        <ele>604.81</ele>
        <time>2020-12-17T12:28:33Z</time>
      </trkpt>
      <trkpt lat="43.39419" lon="2.38583">
        <ele>600.48</ele>
        <time>2020-12-17T12:28:53Z</time>
      </trkpt>
      <trkpt lat="43.39408" lon="2.38594">
        <ele>597.6</ele>
        <time>2020-12-17T12:29:08Z</time>
      </trkpt>
      <trkpt lat="43.39394" lon="2.38614">
        <ele>595.67</ele>
        <time>2020-12-17T12:29:31Z</time>
      </trkpt>
      <trkpt lat="43.39376" lon="2.38617">
        <ele>592.31</ele>
        <time>2020-12-17T12:33:06Z</time>
      </trkpt>
      <trkpt lat="43.39373" lon="2.38599">
        <ele>594.71</ele>
        <time>2020-12-17T12:33:57Z</time>
      </trkpt>
      <trkpt lat="43.39363" lon="2.38647">
        <ele>590.39</ele>
        <time>2020-12-17T12:34:51Z</time>
      </trkpt>
      <trkpt lat="43.39347" lon="2.3866">
        <ele>587.98</ele>
        <time>2020-12-17T12:35:10Z</time>
      </trkpt>
      <trkpt lat="43.39324" lon="2.38678">
        <ele>585.58</ele>
        <time>2020-12-17T12:35:35Z</time>
      </trkpt>
      <trkpt lat="43.39305" lon="2.38681">
        <ele>582.7</ele>
        <time>2020-12-17T12:35:57Z</time>
      </trkpt>
      <trkpt lat="43.39261" lon="2.38676">
        <ele>572.6</ele>
        <time>2020-12-17T12:36:49Z</time>
      </trkpt>
      <trkpt lat="43.39247" lon="2.38687">
        <ele>566.83</ele>
        <time>2020-12-17T12:37:20Z</time>
      </trkpt>
      <trkpt lat="43.39252" lon="2.38662">
        <ele>564.43</ele>
        <time>2020-12-17T12:37:35Z</time>
      </trkpt>
      <trkpt lat="43.39252" lon="2.38638">
        <ele>561.55</ele>
        <time>2020-12-17T12:38:00Z</time>
      </trkpt>
      <trkpt lat="43.3924" lon="2.38654">
        <ele>558.66</ele>
        <time>2020-12-17T12:38:20Z</time>
      </trkpt>
      <trkpt lat="43.39229" lon="2.38674">
        <ele>556.74</ele>
        <time>2020-12-17T12:38:40Z</time>
      </trkpt>
      <trkpt lat="43.39219" lon="2.38699">
        <ele>554.82</ele>
        <time>2020-12-17T12:39:01Z</time>
      </trkpt>
      <trkpt lat="43.39209" lon="2.38719">
        <ele>551.93</ele>
        <time>2020-12-17T12:39:20Z</time>
      </trkpt>
      <trkpt lat="43.39199" lon="2.38739">
        <ele>550.97</ele>
        <time>2020-12-17T12:39:41Z</time>
      </trkpt>
      <trkpt lat="43.3919" lon="2.38765">
        <ele>548.57</ele>
        <time>2020-12-17T12:39:59Z</time>
      </trkpt>
      <trkpt lat="43.39182" lon="2.38789">
        <ele>547.13</ele>
        <time>2020-12-17T12:40:17Z</time>
      </trkpt>
      <trkpt lat="43.39164" lon="2.388">
        <ele>542.8</ele>
        <time>2020-12-17T12:40:46Z</time>
      </trkpt>
      <trkpt lat="43.39111" lon="2.38789">
        <ele>532.71</ele>
        <time>2020-12-17T12:41:47Z</time>
      </trkpt>
      <trkpt lat="43.39071" lon="2.38788">
        <ele>525.5</ele>
        <time>2020-12-17T12:42:33Z</time>
      </trkpt>
      <trkpt lat="43.39026" lon="2.3879">
        <ele>519.73</ele>
        <time>2020-12-17T12:43:20Z</time>
      </trkpt>
      <trkpt lat="43.39008" lon="2.38811">
        <ele>516.37</ele>
        <time>2020-12-17T12:43:45Z</time>
      </trkpt>
      <trkpt lat="43.39001" lon="2.38834">
        <ele>515.4</ele>
        <time>2020-12-17T12:44:03Z</time>
      </trkpt>
      <trkpt lat="43.39" lon="2.3886">
        <ele>513.48</ele>
        <time>2020-12-17T12:44:22Z</time>
      </trkpt>
      <trkpt lat="43.39001" lon="2.38887">
        <ele>511.08</ele>
        <time>2020-12-17T12:44:44Z</time>
      </trkpt>
      <trkpt lat="43.39002" lon="2.38916">
        <ele>510.12</ele>
        <time>2020-12-17T12:45:02Z</time>
      </trkpt>
      <trkpt lat="43.38997" lon="2.38937">
        <ele>509.16</ele>
        <time>2020-12-17T12:45:17Z</time>
      </trkpt>
      <trkpt lat="43.3899" lon="2.3896">
        <ele>508.67</ele>
        <time>2020-12-17T12:45:32Z</time>
      </trkpt>
      <trkpt lat="43.38982" lon="2.38976">
        <ele>508.19</ele>
        <time>2020-12-17T12:45:49Z</time>
      </trkpt>
      <trkpt lat="43.38977" lon="2.38994">
        <ele>507.71</ele>
        <time>2020-12-17T12:46:04Z</time>
      </trkpt>
      <trkpt lat="43.38969" lon="2.39015">
        <ele>505.79</ele>
        <time>2020-12-17T12:46:21Z</time>
      </trkpt>
      <trkpt lat="43.38961" lon="2.39032">
        <ele>504.35</ele>
        <time>2020-12-17T12:46:35Z</time>
      </trkpt>
      <trkpt lat="43.38955" lon="2.39047">
        <ele>503.87</ele>
        <time>2020-12-17T12:46:48Z</time>
      </trkpt>
      <trkpt lat="43.38948" lon="2.3906">
        <ele>501.95</ele>
        <time>2020-12-17T12:47:00Z</time>
      </trkpt>
      <trkpt lat="43.38941" lon="2.39073">
        <ele>499.54</ele>
        <time>2020-12-17T12:47:14Z</time>
      </trkpt>
      <trkpt lat="43.38934" lon="2.39087">
        <ele>496.66</ele>
        <time>2020-12-17T12:47:33Z</time>
      </trkpt>
      <trkpt lat="43.38916" lon="2.39108">
        <ele>494.26</ele>
        <time>2020-12-17T12:47:56Z</time>
      </trkpt>
      <trkpt lat="43.38906" lon="2.3913">
        <ele>491.85</ele>
        <time>2020-12-17T12:48:13Z</time>
      </trkpt>
      <trkpt lat="43.38901" lon="2.39154">
        <ele>488.97</ele>
        <time>2020-12-17T12:48:34Z</time>
      </trkpt>
      <trkpt lat="43.38902" lon="2.3918">
        <ele>487.53</ele>
        <time>2020-12-17T12:48:51Z</time>
      </trkpt>
      <trkpt lat="43.38905" lon="2.39203">
        <ele>485.6</ele>
        <time>2020-12-17T12:49:08Z</time>
      </trkpt>
      <trkpt lat="43.38906" lon="2.39227">
        <ele>483.2</ele>
        <time>2020-12-17T12:49:26Z</time>
      </trkpt>
      <trkpt lat="43.38903" lon="2.39247">
        <ele>481.28</ele>
        <time>2020-12-17T12:49:40Z</time>
      </trkpt>
      <trkpt lat="43.38901" lon="2.39264">
        <ele>479.84</ele>
        <time>2020-12-17T12:49:51Z</time>
      </trkpt>
      <trkpt lat="43.389" lon="2.39279">
        <ele>477.91</ele>
        <time>2020-12-17T12:50:05Z</time>
      </trkpt>
      <trkpt lat="43.38894" lon="2.39302">
        <ele>475.03</ele>
        <time>2020-12-17T12:50:32Z</time>
      </trkpt>
      <trkpt lat="43.38892" lon="2.39322">
        <ele>472.63</ele>
        <time>2020-12-17T12:50:48Z</time>
      </trkpt>
      <trkpt lat="43.38875" lon="2.39342">
        <ele>469.26</ele>
        <time>2020-12-17T12:51:11Z</time>
      </trkpt>
      <trkpt lat="43.3886" lon="2.39368">
        <ele>465.9</ele>
        <time>2020-12-17T12:51:32Z</time>
      </trkpt>
      <trkpt lat="43.38849" lon="2.39391">
        <ele>462.05</ele>
        <time>2020-12-17T12:51:56Z</time>
      </trkpt>
      <trkpt lat="43.38834" lon="2.394">
        <ele>459.65</ele>
        <time>2020-12-17T12:52:14Z</time>
      </trkpt>
      <trkpt lat="43.38816" lon="2.39415">
        <ele>455.8</ele>
        <time>2020-12-17T12:52:41Z</time>
      </trkpt>
      <trkpt lat="43.38809" lon="2.39437">
        <ele>452.44</ele>
        <time>2020-12-17T12:53:00Z</time>
      </trkpt>
      <trkpt lat="43.38803" lon="2.39454">
        <ele>449.07</ele>
        <time>2020-12-17T12:53:16Z</time>
      </trkpt>
      <trkpt lat="43.388" lon="2.39472">
        <ele>448.59</ele>
        <time>2020-12-17T12:53:32Z</time>
      </trkpt>
      <trkpt lat="43.38782" lon="2.3949">
        <ele>446.19</ele>
        <time>2020-12-17T12:53:52Z</time>
      </trkpt>
      <trkpt lat="43.38766" lon="2.39506">
        <ele>442.82</ele>
        <time>2020-12-17T12:54:15Z</time>
      </trkpt>
      <trkpt lat="43.38751" lon="2.39533">
        <ele>439.46</ele>
        <time>2020-12-17T12:54:39Z</time>
      </trkpt>
      <trkpt lat="43.38751" lon="2.39554">
        <ele>435.13</ele>
        <time>2020-12-17T12:54:57Z</time>
      </trkpt>
      <trkpt lat="43.38746" lon="2.3957">
        <ele>433.69</ele>
        <time>2020-12-17T12:55:10Z</time>
      </trkpt>
      <trkpt lat="43.38738" lon="2.39589">
        <ele>431.29</ele>
        <time>2020-12-17T12:55:25Z</time>
      </trkpt>
      <trkpt lat="43.38735" lon="2.39607">
        <ele>428.4</ele>
        <time>2020-12-17T12:55:42Z</time>
      </trkpt>
      <trkpt lat="43.38709" lon="2.39635">
        <ele>422.16</ele>
        <time>2020-12-17T12:56:23Z</time>
      </trkpt>
      <trkpt lat="43.38696" lon="2.39625">
        <ele>420.71</ele>
        <time>2020-12-17T12:56:41Z</time>
      </trkpt>
      <trkpt lat="43.38697" lon="2.39601">
        <ele>420.71</ele>
        <time>2020-12-17T12:56:56Z</time>
      </trkpt>
      <trkpt lat="43.3869" lon="2.39563">
        <ele>422.16</ele>
        <time>2020-12-17T12:57:22Z</time>
      </trkpt>
      <trkpt lat="43.38675" lon="2.39532">
        <ele>423.12</ele>
        <time>2020-12-17T12:57:48Z</time>
      </trkpt>
      <trkpt lat="43.38661" lon="2.39527">
        <ele>424.08</ele>
        <time>2020-12-17T12:58:03Z</time>
      </trkpt>
      <trkpt lat="43.38641" lon="2.3955">
        <ele>421.19</ele>
        <time>2020-12-17T12:58:26Z</time>
      </trkpt>
      <trkpt lat="43.38621" lon="2.3957">
        <ele>418.31</ele>
        <time>2020-12-17T12:58:48Z</time>
      </trkpt>
      <trkpt lat="43.38601" lon="2.39585">
        <ele>416.39</ele>
        <time>2020-12-17T12:59:10Z</time>
      </trkpt>
      <trkpt lat="43.38587" lon="2.39585">
        <ele>415.91</ele>
        <time>2020-12-17T12:59:24Z</time>
      </trkpt>
      <trkpt lat="43.3857" lon="2.3958">
        <ele>415.91</ele>
        <time>2020-12-17T12:59:37Z</time>
      </trkpt>
      <trkpt lat="43.38557" lon="2.39579">
        <ele>416.39</ele>
        <time>2020-12-17T12:59:49Z</time>
      </trkpt>
      <trkpt lat="43.38541" lon="2.39579">
        <ele>416.87</ele>
        <time>2020-12-17T13:00:03Z</time>
      </trkpt>
      <trkpt lat="43.38527" lon="2.39573">
        <ele>417.35</ele>
        <time>2020-12-17T13:00:14Z</time>
      </trkpt>
      <trkpt lat="43.38516" lon="2.39568">
        <ele>417.83</ele>
        <time>2020-12-17T13:00:27Z</time>
      </trkpt>
      <trkpt lat="43.38504" lon="2.39567">
        <ele>419.27</ele>
        <time>2020-12-17T13:00:40Z</time>
      </trkpt>
      <trkpt lat="43.38486" lon="2.39573">
        <ele>418.31</ele>
        <time>2020-12-17T13:00:56Z</time>
      </trkpt>
      <trkpt lat="43.38459" lon="2.39591">
        <ele>418.31</ele>
        <time>2020-12-17T13:01:21Z</time>
      </trkpt>
      <trkpt lat="43.38447" lon="2.39603">
        <ele>415.91</ele>
        <time>2020-12-17T13:01:38Z</time>
      </trkpt>
      <trkpt lat="43.38433" lon="2.39619">
        <ele>414.47</ele>
        <time>2020-12-17T13:02:09Z</time>
      </trkpt>
      <trkpt lat="43.3842" lon="2.39632">
        <ele>416.39</ele>
        <time>2020-12-17T13:02:23Z</time>
      </trkpt>
      <trkpt lat="43.38409" lon="2.3965">
        <ele>417.35</ele>
        <time>2020-12-17T13:02:39Z</time>
      </trkpt>
      <trkpt lat="43.38398" lon="2.39666">
        <ele>417.83</ele>
        <time>2020-12-17T13:02:55Z</time>
      </trkpt>
      <trkpt lat="43.38381" lon="2.39666">
        <ele>419.27</ele>
        <time>2020-12-17T13:03:09Z</time>
      </trkpt>
      <trkpt lat="43.38372" lon="2.39655">
        <ele>420.23</ele>
        <time>2020-12-17T13:03:22Z</time>
      </trkpt>
      <trkpt lat="43.38362" lon="2.39645">
        <ele>420.71</ele>
        <time>2020-12-17T13:03:32Z</time>
      </trkpt>
      <trkpt lat="43.38351" lon="2.39638">
        <ele>421.68</ele>
        <time>2020-12-17T13:03:44Z</time>
      </trkpt>
      <trkpt lat="43.3834" lon="2.39635">
        <ele>421.68</ele>
        <time>2020-12-17T13:03:56Z</time>
      </trkpt>
      <trkpt lat="43.38327" lon="2.39625">
        <ele>423.6</ele>
        <time>2020-12-17T13:04:10Z</time>
      </trkpt>
      <trkpt lat="43.38317" lon="2.39614">
        <ele>424.56</ele>
        <time>2020-12-17T13:04:24Z</time>
      </trkpt>
      <trkpt lat="43.38306" lon="2.39601">
        <ele>425.52</ele>
        <time>2020-12-17T13:04:37Z</time>
      </trkpt>
      <trkpt lat="43.38298" lon="2.39591">
        <ele>426</ele>
        <time>2020-12-17T13:04:48Z</time>
      </trkpt>
      <trkpt lat="43.38288" lon="2.39584">
        <ele>426.96</ele>
        <time>2020-12-17T13:04:58Z</time>
      </trkpt>
      <trkpt lat="43.38279" lon="2.3958">
        <ele>427.44</ele>
        <time>2020-12-17T13:05:08Z</time>
      </trkpt>
      <trkpt lat="43.38271" lon="2.39592">
        <ele>428.4</ele>
        <time>2020-12-17T13:05:20Z</time>
      </trkpt>
      <trkpt lat="43.3826" lon="2.39602">
        <ele>428.89</ele>
        <time>2020-12-17T13:05:33Z</time>
      </trkpt>
      <trkpt lat="43.38251" lon="2.39614">
        <ele>429.85</ele>
        <time>2020-12-17T13:05:43Z</time>
      </trkpt>
      <trkpt lat="43.38243" lon="2.39631">
        <ele>429.85</ele>
        <time>2020-12-17T13:05:57Z</time>
      </trkpt>
      <trkpt lat="43.38236" lon="2.39647">
        <ele>431.29</ele>
        <time>2020-12-17T13:06:12Z</time>
      </trkpt>
      <trkpt lat="43.38223" lon="2.39662">
        <ele>432.25</ele>
        <time>2020-12-17T13:06:26Z</time>
      </trkpt>
      <trkpt lat="43.38213" lon="2.39657">
        <ele>432.73</ele>
        <time>2020-12-17T13:06:38Z</time>
      </trkpt>
      <trkpt lat="43.38209" lon="2.39638">
        <ele>434.65</ele>
        <time>2020-12-17T13:06:56Z</time>
      </trkpt>
      <trkpt lat="43.3821" lon="2.39612">
        <ele>435.61</ele>
        <time>2020-12-17T13:07:18Z</time>
      </trkpt>
      <trkpt lat="43.3821" lon="2.39594">
        <ele>436.58</ele>
        <time>2020-12-17T13:07:35Z</time>
      </trkpt>
      <trkpt lat="43.38212" lon="2.39574">
        <ele>437.54</ele>
        <time>2020-12-17T13:07:48Z</time>
      </trkpt>
      <trkpt lat="43.38212" lon="2.39557">
        <ele>438.5</ele>
        <time>2020-12-17T13:07:58Z</time>
      </trkpt>
      <trkpt lat="43.38206" lon="2.39542">
        <ele>438.5</ele>
        <time>2020-12-17T13:08:09Z</time>
      </trkpt>
      <trkpt lat="43.38197" lon="2.39528">
        <ele>439.46</ele>
        <time>2020-12-17T13:08:21Z</time>
      </trkpt>
      <trkpt lat="43.38192" lon="2.39516">
        <ele>440.9</ele>
        <time>2020-12-17T13:08:32Z</time>
      </trkpt>
      <trkpt lat="43.38183" lon="2.39506">
        <ele>440.9</ele>
        <time>2020-12-17T13:08:42Z</time>
      </trkpt>
      <trkpt lat="43.38173" lon="2.39499">
        <ele>441.86</ele>
        <time>2020-12-17T13:08:53Z</time>
      </trkpt>
      <trkpt lat="43.38162" lon="2.39492">
        <ele>441.86</ele>
        <time>2020-12-17T13:09:05Z</time>
      </trkpt>
      <trkpt lat="43.38152" lon="2.39482">
        <ele>440.9</ele>
        <time>2020-12-17T13:09:15Z</time>
      </trkpt>
      <trkpt lat="43.38146" lon="2.39469">
        <ele>440.9</ele>
        <time>2020-12-17T13:09:25Z</time>
      </trkpt>
      <trkpt lat="43.38141" lon="2.39456">
        <ele>440.42</ele>
        <time>2020-12-17T13:09:34Z</time>
      </trkpt>
      <trkpt lat="43.38132" lon="2.39451">
        <ele>439.94</ele>
        <time>2020-12-17T13:09:58Z</time>
      </trkpt>
      <trkpt lat="43.38127" lon="2.39436">
        <ele>440.42</ele>
        <time>2020-12-17T13:10:10Z</time>
      </trkpt>
      <trkpt lat="43.38119" lon="2.39424">
        <ele>440.9</ele>
        <time>2020-12-17T13:10:23Z</time>
      </trkpt>
      <trkpt lat="43.38122" lon="2.39409">
        <ele>439.46</ele>
        <time>2020-12-17T13:11:07Z</time>
      </trkpt>
      <trkpt lat="43.38101" lon="2.39426">
        <ele>440.42</ele>
        <time>2020-12-17T13:12:07Z</time>
      </trkpt>
      <trkpt lat="43.38103" lon="2.39418">
        <ele>439.94</ele>
        <time>2020-12-17T13:12:34Z</time>
      </trkpt>
      <trkpt lat="43.38096" lon="2.39414">
        <ele>439.94</ele>
        <time>2020-12-17T13:12:56Z</time>
      </trkpt>
      <trkpt lat="43.38093" lon="2.39416">
        <ele>439.46</ele>
        <time>2020-12-17T13:14:34Z</time>
      </trkpt>
      <trkpt lat="43.38108" lon="2.39408">
        <ele>440.42</ele>
        <time>2020-12-17T13:14:47Z</time>
      </trkpt>
      <trkpt lat="43.3812" lon="2.39422">
        <ele>440.42</ele>
        <time>2020-12-17T13:14:57Z</time>
      </trkpt>
      <trkpt lat="43.38125" lon="2.39434">
        <ele>440.42</ele>
        <time>2020-12-17T13:15:06Z</time>
      </trkpt>
      <trkpt lat="43.38131" lon="2.39449">
        <ele>439.94</ele>
        <time>2020-12-17T13:15:16Z</time>
      </trkpt>
      <trkpt lat="43.38138" lon="2.3946">
        <ele>440.9</ele>
        <time>2020-12-17T13:15:27Z</time>
      </trkpt>
      <trkpt lat="43.38141" lon="2.39471">
        <ele>442.82</ele>
        <time>2020-12-17T13:15:43Z</time>
      </trkpt>
      <trkpt lat="43.3815" lon="2.39482">
        <ele>444.75</ele>
        <time>2020-12-17T13:15:57Z</time>
      </trkpt>
      <trkpt lat="43.3816" lon="2.39493">
        <ele>445.71</ele>
        <time>2020-12-17T13:16:08Z</time>
      </trkpt>
      <trkpt lat="43.38164" lon="2.39507">
        <ele>447.15</ele>
        <time>2020-12-17T13:16:21Z</time>
      </trkpt>
      <trkpt lat="43.38165" lon="2.39521">
        <ele>448.11</ele>
        <time>2020-12-17T13:16:33Z</time>
      </trkpt>
      <trkpt lat="43.38175" lon="2.39538">
        <ele>449.55</ele>
        <time>2020-12-17T13:16:47Z</time>
      </trkpt>
      <trkpt lat="43.3817" lon="2.39527">
        <ele>448.59</ele>
        <time>2020-12-17T13:17:16Z</time>
      </trkpt>
      <trkpt lat="43.38166" lon="2.39514">
        <ele>447.15</ele>
        <time>2020-12-17T13:17:24Z</time>
      </trkpt>
      <trkpt lat="43.38161" lon="2.39501">
        <ele>446.67</ele>
        <time>2020-12-17T13:17:35Z</time>
      </trkpt>
      <trkpt lat="43.38156" lon="2.39488">
        <ele>445.23</ele>
        <time>2020-12-17T13:17:44Z</time>
      </trkpt>
      <trkpt lat="43.38149" lon="2.39477">
        <ele>444.27</ele>
        <time>2020-12-17T13:17:54Z</time>
      </trkpt>
      <trkpt lat="43.38144" lon="2.39465">
        <ele>442.82</ele>
        <time>2020-12-17T13:18:03Z</time>
      </trkpt>
      <trkpt lat="43.38138" lon="2.39454">
        <ele>440.9</ele>
        <time>2020-12-17T13:18:13Z</time>
      </trkpt>
      <trkpt lat="43.38133" lon="2.3944">
        <ele>439.94</ele>
        <time>2020-12-17T13:18:22Z</time>
      </trkpt>
      <trkpt lat="43.38123" lon="2.39427">
        <ele>440.42</ele>
        <time>2020-12-17T13:18:33Z</time>
      </trkpt>
      <trkpt lat="43.38117" lon="2.39418">
        <ele>440.9</ele>
        <time>2020-12-17T13:18:57Z</time>
      </trkpt>
      <trkpt lat="43.38104" lon="2.39415">
        <ele>440.42</ele>
        <time>2020-12-17T13:19:09Z</time>
      </trkpt>
      <trkpt lat="43.3809" lon="2.39424">
        <ele>439.46</ele>
        <time>2020-12-17T13:19:23Z</time>
      </trkpt>
      <trkpt lat="43.38081" lon="2.39417">
        <ele>439.46</ele>
        <time>2020-12-17T13:19:37Z</time>
      </trkpt>
      <trkpt lat="43.38068" lon="2.39414">
        <ele>438.98</ele>
        <time>2020-12-17T13:19:46Z</time>
      </trkpt>
      <trkpt lat="43.38057" lon="2.3941">
        <ele>438.5</ele>
        <time>2020-12-17T13:19:56Z</time>
      </trkpt>
      <trkpt lat="43.38049" lon="2.39398">
        <ele>439.94</ele>
        <time>2020-12-17T13:20:08Z</time>
      </trkpt>
      <trkpt lat="43.38044" lon="2.3938">
        <ele>440.42</ele>
        <time>2020-12-17T13:20:22Z</time>
      </trkpt>
      <trkpt lat="43.38038" lon="2.39366">
        <ele>441.86</ele>
        <time>2020-12-17T13:20:45Z</time>
      </trkpt>
      <trkpt lat="43.38031" lon="2.39352">
        <ele>443.79</ele>
        <time>2020-12-17T13:20:55Z</time>
      </trkpt>
      <trkpt lat="43.38024" lon="2.39343">
        <ele>443.31</ele>
        <time>2020-12-17T13:21:05Z</time>
      </trkpt>
      <trkpt lat="43.38015" lon="2.39334">
        <ele>444.27</ele>
        <time>2020-12-17T13:21:21Z</time>
      </trkpt>
      <trkpt lat="43.38009" lon="2.39327">
        <ele>444.27</ele>
        <time>2020-12-17T13:21:54Z</time>
      </trkpt>
      <trkpt lat="43.38001" lon="2.39314">
        <ele>443.79</ele>
        <time>2020-12-17T13:22:04Z</time>
      </trkpt>
      <trkpt lat="43.37993" lon="2.39302">
        <ele>443.31</ele>
        <time>2020-12-17T13:22:16Z</time>
      </trkpt>
      <trkpt lat="43.37987" lon="2.39289">
        <ele>443.31</ele>
        <time>2020-12-17T13:22:27Z</time>
      </trkpt>
      <trkpt lat="43.37979" lon="2.39276">
        <ele>442.82</ele>
        <time>2020-12-17T13:22:38Z</time>
      </trkpt>
      <trkpt lat="43.37974" lon="2.39259">
        <ele>442.34</ele>
        <time>2020-12-17T13:22:51Z</time>
      </trkpt>
      <trkpt lat="43.37967" lon="2.39248">
        <ele>442.34</ele>
        <time>2020-12-17T13:23:11Z</time>
      </trkpt>
      <trkpt lat="43.37958" lon="2.39237">
        <ele>442.34</ele>
        <time>2020-12-17T13:23:24Z</time>
      </trkpt>
      <trkpt lat="43.37949" lon="2.39227">
        <ele>441.38</ele>
        <time>2020-12-17T13:23:36Z</time>
      </trkpt>
      <trkpt lat="43.37937" lon="2.3922">
        <ele>440.9</ele>
        <time>2020-12-17T13:23:47Z</time>
      </trkpt>
      <trkpt lat="43.37928" lon="2.39208">
        <ele>441.86</ele>
        <time>2020-12-17T13:23:58Z</time>
      </trkpt>
      <trkpt lat="43.37929" lon="2.39191">
        <ele>442.34</ele>
        <time>2020-12-17T13:24:09Z</time>
      </trkpt>
      <trkpt lat="43.37927" lon="2.39175">
        <ele>442.82</ele>
        <time>2020-12-17T13:24:20Z</time>
      </trkpt>
      <trkpt lat="43.37921" lon="2.39156">
        <ele>444.75</ele>
        <time>2020-12-17T13:24:35Z</time>
      </trkpt>
      <trkpt lat="43.37908" lon="2.39145">
        <ele>447.63</ele>
        <time>2020-12-17T13:24:52Z</time>
      </trkpt>
      <trkpt lat="43.37894" lon="2.39131">
        <ele>450.52</ele>
        <time>2020-12-17T13:25:13Z</time>
      </trkpt>
      <trkpt lat="43.37886" lon="2.39113">
        <ele>453.88</ele>
        <time>2020-12-17T13:25:38Z</time>
      </trkpt>
      <trkpt lat="43.37871" lon="2.39101">
        <ele>456.76</ele>
        <time>2020-12-17T13:26:00Z</time>
      </trkpt>
      <trkpt lat="43.3786" lon="2.39092">
        <ele>459.17</ele>
        <time>2020-12-17T13:26:20Z</time>
      </trkpt>
      <trkpt lat="43.37847" lon="2.39072">
        <ele>463.49</ele>
        <time>2020-12-17T13:26:50Z</time>
      </trkpt>
      <trkpt lat="43.37836" lon="2.39051">
        <ele>466.86</ele>
        <time>2020-12-17T13:27:20Z</time>
      </trkpt>
      <trkpt lat="43.37832" lon="2.39032">
        <ele>469.74</ele>
        <time>2020-12-17T13:27:43Z</time>
      </trkpt>
      <trkpt lat="43.3782" lon="2.39011">
        <ele>473.59</ele>
        <time>2020-12-17T13:28:11Z</time>
      </trkpt>
      <trkpt lat="43.37812" lon="2.38984">
        <ele>477.43</ele>
        <time>2020-12-17T13:28:41Z</time>
      </trkpt>
      <trkpt lat="43.37801" lon="2.38971">
        <ele>478.87</ele>
        <time>2020-12-17T13:28:57Z</time>
      </trkpt>
      <trkpt lat="43.3779" lon="2.3896">
        <ele>480.8</ele>
        <time>2020-12-17T13:29:11Z</time>
      </trkpt>
      <trkpt lat="43.37775" lon="2.38956">
        <ele>482.72</ele>
        <time>2020-12-17T13:29:28Z</time>
      </trkpt>
      <trkpt lat="43.37763" lon="2.38952">
        <ele>484.16</ele>
        <time>2020-12-17T13:29:41Z</time>
      </trkpt>
      <trkpt lat="43.37753" lon="2.38945">
        <ele>485.12</ele>
        <time>2020-12-17T13:29:59Z</time>
      </trkpt>
      <trkpt lat="43.37742" lon="2.38943">
        <ele>486.56</ele>
        <time>2020-12-17T13:30:11Z</time>
      </trkpt>
      <trkpt lat="43.37732" lon="2.38942">
        <ele>488.01</ele>
        <time>2020-12-17T13:30:23Z</time>
      </trkpt>
      <trkpt lat="43.37722" lon="2.38943">
        <ele>490.41</ele>
        <time>2020-12-17T13:30:39Z</time>
      </trkpt>
      <trkpt lat="43.37708" lon="2.3894">
        <ele>491.85</ele>
        <time>2020-12-17T13:30:56Z</time>
      </trkpt>
      <trkpt lat="43.37694" lon="2.38944">
        <ele>493.77</ele>
        <time>2020-12-17T13:31:11Z</time>
      </trkpt>
      <trkpt lat="43.37683" lon="2.38946">
        <ele>495.22</ele>
        <time>2020-12-17T13:31:24Z</time>
      </trkpt>
      <trkpt lat="43.37669" lon="2.38951">
        <ele>498.1</ele>
        <time>2020-12-17T13:31:44Z</time>
      </trkpt>
      <trkpt lat="43.37654" lon="2.38952">
        <ele>499.54</ele>
        <time>2020-12-17T13:32:00Z</time>
      </trkpt>
      <trkpt lat="43.3764" lon="2.38954">
        <ele>501.46</ele>
        <time>2020-12-17T13:32:16Z</time>
      </trkpt>
      <trkpt lat="43.37627" lon="2.38955">
        <ele>504.35</ele>
        <time>2020-12-17T13:32:33Z</time>
      </trkpt>
      <trkpt lat="43.37615" lon="2.38952">
        <ele>507.23</ele>
        <time>2020-12-17T13:32:51Z</time>
      </trkpt>
      <trkpt lat="43.37607" lon="2.38942">
        <ele>508.67</ele>
        <time>2020-12-17T13:33:02Z</time>
      </trkpt>
      <trkpt lat="43.37597" lon="2.38935">
        <ele>509.64</ele>
        <time>2020-12-17T13:33:15Z</time>
      </trkpt>
      <trkpt lat="43.37586" lon="2.38924">
        <ele>511.08</ele>
        <time>2020-12-17T13:33:27Z</time>
      </trkpt>
      <trkpt lat="43.37574" lon="2.38911">
        <ele>512.52</ele>
        <time>2020-12-17T13:33:40Z</time>
      </trkpt>
      <trkpt lat="43.37563" lon="2.38901">
        <ele>513.48</ele>
        <time>2020-12-17T13:33:51Z</time>
      </trkpt>
      <trkpt lat="43.37553" lon="2.38891">
        <ele>514.92</ele>
        <time>2020-12-17T13:34:03Z</time>
      </trkpt>
      <trkpt lat="43.37542" lon="2.38881">
        <ele>515.88</ele>
        <time>2020-12-17T13:34:16Z</time>
      </trkpt>
      <trkpt lat="43.3753" lon="2.38871">
        <ele>517.33</ele>
        <time>2020-12-17T13:34:28Z</time>
      </trkpt>
      <trkpt lat="43.3752" lon="2.38862">
        <ele>518.29</ele>
        <time>2020-12-17T13:34:38Z</time>
      </trkpt>
      <trkpt lat="43.37511" lon="2.38855">
        <ele>519.25</ele>
        <time>2020-12-17T13:34:48Z</time>
      </trkpt>
      <trkpt lat="43.375" lon="2.38849">
        <ele>520.69</ele>
        <time>2020-12-17T13:35:00Z</time>
      </trkpt>
      <trkpt lat="43.3749" lon="2.3884">
        <ele>522.13</ele>
        <time>2020-12-17T13:35:11Z</time>
      </trkpt>
      <trkpt lat="43.37484" lon="2.38826">
        <ele>523.58</ele>
        <time>2020-12-17T13:35:20Z</time>
      </trkpt>
      <trkpt lat="43.37479" lon="2.38815">
        <ele>524.54</ele>
        <time>2020-12-17T13:35:30Z</time>
      </trkpt>
      <trkpt lat="43.37473" lon="2.3881">
        <ele>525.98</ele>
        <time>2020-12-17T13:35:53Z</time>
      </trkpt>
      <trkpt lat="43.37462" lon="2.38812">
        <ele>526.46</ele>
        <time>2020-12-17T13:36:14Z</time>
      </trkpt>
      <trkpt lat="43.37462" lon="2.38827">
        <ele>527.42</ele>
        <time>2020-12-17T13:36:22Z</time>
      </trkpt>
      <trkpt lat="43.37463" lon="2.38841">
        <ele>526.46</ele>
        <time>2020-12-17T13:36:32Z</time>
      </trkpt>
      <trkpt lat="43.37462" lon="2.38854">
        <ele>525.5</ele>
        <time>2020-12-17T13:36:42Z</time>
      </trkpt>
      <trkpt lat="43.37457" lon="2.38861">
        <ele>523.09</ele>
        <time>2020-12-17T13:36:54Z</time>
      </trkpt>
      <trkpt lat="43.3745" lon="2.3885">
        <ele>521.65</ele>
        <time>2020-12-17T13:37:05Z</time>
      </trkpt>
      <trkpt lat="43.37441" lon="2.38839">
        <ele>519.73</ele>
        <time>2020-12-17T13:37:17Z</time>
      </trkpt>
      <trkpt lat="43.37435" lon="2.38827">
        <ele>518.29</ele>
        <time>2020-12-17T13:37:28Z</time>
      </trkpt>
      <trkpt lat="43.37427" lon="2.38818">
        <ele>516.85</ele>
        <time>2020-12-17T13:37:39Z</time>
      </trkpt>
      <trkpt lat="43.37417" lon="2.38807">
        <ele>514.92</ele>
        <time>2020-12-17T13:37:55Z</time>
      </trkpt>
      <trkpt lat="43.37408" lon="2.38792">
        <ele>513</ele>
        <time>2020-12-17T13:38:10Z</time>
      </trkpt>
      <trkpt lat="43.37397" lon="2.38783">
        <ele>511.08</ele>
        <time>2020-12-17T13:38:23Z</time>
      </trkpt>
      <trkpt lat="43.37384" lon="2.38773">
        <ele>509.64</ele>
        <time>2020-12-17T13:38:36Z</time>
      </trkpt>
      <trkpt lat="43.37374" lon="2.38762">
        <ele>508.67</ele>
        <time>2020-12-17T13:38:47Z</time>
      </trkpt>
      <trkpt lat="43.37365" lon="2.38752">
        <ele>507.71</ele>
        <time>2020-12-17T13:38:57Z</time>
      </trkpt>
      <trkpt lat="43.37355" lon="2.38743">
        <ele>505.79</ele>
        <time>2020-12-17T13:39:08Z</time>
      </trkpt>
      <trkpt lat="43.37345" lon="2.38735">
        <ele>504.35</ele>
        <time>2020-12-17T13:39:18Z</time>
      </trkpt>
      <trkpt lat="43.37337" lon="2.38724">
        <ele>503.39</ele>
        <time>2020-12-17T13:39:28Z</time>
      </trkpt>
      <trkpt lat="43.37326" lon="2.38713">
        <ele>502.43</ele>
        <time>2020-12-17T13:39:40Z</time>
      </trkpt>
      <trkpt lat="43.37318" lon="2.38702">
        <ele>500.98</ele>
        <time>2020-12-17T13:39:51Z</time>
      </trkpt>
      <trkpt lat="43.37308" lon="2.3869">
        <ele>500.02</ele>
        <time>2020-12-17T13:40:03Z</time>
      </trkpt>
      <trkpt lat="43.37297" lon="2.38677">
        <ele>500.5</ele>
        <time>2020-12-17T13:40:15Z</time>
      </trkpt>
      <trkpt lat="43.37287" lon="2.38669">
        <ele>501.46</ele>
        <time>2020-12-17T13:40:26Z</time>
      </trkpt>
      <trkpt lat="43.37274" lon="2.38662">
        <ele>501.95</ele>
        <time>2020-12-17T13:40:38Z</time>
      </trkpt>
      <trkpt lat="43.37261" lon="2.38656">
        <ele>500.5</ele>
        <time>2020-12-17T13:40:51Z</time>
      </trkpt>
      <trkpt lat="43.37248" lon="2.3864">
        <ele>497.62</ele>
        <time>2020-12-17T13:41:07Z</time>
      </trkpt>
      <trkpt lat="43.37235" lon="2.38627">
        <ele>495.7</ele>
        <time>2020-12-17T13:41:19Z</time>
      </trkpt>
      <trkpt lat="43.37226" lon="2.38618">
        <ele>494.26</ele>
        <time>2020-12-17T13:41:29Z</time>
      </trkpt>
      <trkpt lat="43.37214" lon="2.3861">
        <ele>492.33</ele>
        <time>2020-12-17T13:41:41Z</time>
      </trkpt>
      <trkpt lat="43.37202" lon="2.38601">
        <ele>490.41</ele>
        <time>2020-12-17T13:41:53Z</time>
      </trkpt>
      <trkpt lat="43.37188" lon="2.38594">
        <ele>488.97</ele>
        <time>2020-12-17T13:42:05Z</time>
      </trkpt>
      <trkpt lat="43.37171" lon="2.38587">
        <ele>486.56</ele>
        <time>2020-12-17T13:42:19Z</time>
      </trkpt>
      <trkpt lat="43.37159" lon="2.38577">
        <ele>484.64</ele>
        <time>2020-12-17T13:42:30Z</time>
      </trkpt>
      <trkpt lat="43.37148" lon="2.3857">
        <ele>483.2</ele>
        <time>2020-12-17T13:42:41Z</time>
      </trkpt>
      <trkpt lat="43.37137" lon="2.38559">
        <ele>481.76</ele>
        <time>2020-12-17T13:42:53Z</time>
      </trkpt>
      <trkpt lat="43.37124" lon="2.38551">
        <ele>480.8</ele>
        <time>2020-12-17T13:43:05Z</time>
      </trkpt>
      <trkpt lat="43.37112" lon="2.38539">
        <ele>480.32</ele>
        <time>2020-12-17T13:43:17Z</time>
      </trkpt>
      <trkpt lat="43.37101" lon="2.38531">
        <ele>480.32</ele>
        <time>2020-12-17T13:43:28Z</time>
      </trkpt>
      <trkpt lat="43.37096" lon="2.38519">
        <ele>482.24</ele>
        <time>2020-12-17T13:43:56Z</time>
      </trkpt>
      <trkpt lat="43.37106" lon="2.38527">
        <ele>484.64</ele>
        <time>2020-12-17T13:44:21Z</time>
      </trkpt>
      <trkpt lat="43.37104" lon="2.38521">
        <ele>484.64</ele>
        <time>2020-12-17T13:45:22Z</time>
      </trkpt>
      <trkpt lat="43.37087" lon="2.38517">
        <ele>480.32</ele>
        <time>2020-12-17T13:46:05Z</time>
      </trkpt>
      <trkpt lat="43.37073" lon="2.38516">
        <ele>477.43</ele>
        <time>2020-12-17T13:46:18Z</time>
      </trkpt>
      <trkpt lat="43.37061" lon="2.38511">
        <ele>474.55</ele>
        <time>2020-12-17T13:46:35Z</time>
      </trkpt>
      <trkpt lat="43.37047" lon="2.38507">
        <ele>472.63</ele>
        <time>2020-12-17T13:46:48Z</time>
      </trkpt>
      <trkpt lat="43.37034" lon="2.385">
        <ele>471.66</ele>
        <time>2020-12-17T13:47:00Z</time>
      </trkpt>
      <trkpt lat="43.37022" lon="2.38491">
        <ele>471.18</ele>
        <time>2020-12-17T13:47:11Z</time>
      </trkpt>
      <trkpt lat="43.3701" lon="2.38486">
        <ele>470.22</ele>
        <time>2020-12-17T13:47:20Z</time>
      </trkpt>
      <trkpt lat="43.36998" lon="2.38483">
        <ele>468.3</ele>
        <time>2020-12-17T13:47:32Z</time>
      </trkpt>
      <trkpt lat="43.36986" lon="2.38479">
        <ele>466.38</ele>
        <time>2020-12-17T13:48:03Z</time>
      </trkpt>
      <trkpt lat="43.36976" lon="2.38477">
        <ele>465.42</ele>
        <time>2020-12-17T13:48:12Z</time>
      </trkpt>
      <trkpt lat="43.36965" lon="2.38475">
        <ele>464.93</ele>
        <time>2020-12-17T13:48:20Z</time>
      </trkpt>
      <trkpt lat="43.36956" lon="2.38471">
        <ele>465.9</ele>
        <time>2020-12-17T13:48:29Z</time>
      </trkpt>
      <trkpt lat="43.36945" lon="2.38464">
        <ele>465.9</ele>
        <time>2020-12-17T13:48:39Z</time>
      </trkpt>
      <trkpt lat="43.36935" lon="2.38462">
        <ele>465.9</ele>
        <time>2020-12-17T13:48:48Z</time>
      </trkpt>
      <trkpt lat="43.36925" lon="2.38464">
        <ele>464.45</ele>
        <time>2020-12-17T13:48:57Z</time>
      </trkpt>
      <trkpt lat="43.36913" lon="2.38467">
        <ele>463.97</ele>
        <time>2020-12-17T13:49:06Z</time>
      </trkpt>
      <trkpt lat="43.36903" lon="2.38469">
        <ele>463.49</ele>
        <time>2020-12-17T13:49:15Z</time>
      </trkpt>
      <trkpt lat="43.36893" lon="2.38468">
        <ele>462.53</ele>
        <time>2020-12-17T13:49:25Z</time>
      </trkpt>
      <trkpt lat="43.36884" lon="2.38464">
        <ele>462.53</ele>
        <time>2020-12-17T13:49:33Z</time>
      </trkpt>
      <trkpt lat="43.36873" lon="2.38462">
        <ele>462.05</ele>
        <time>2020-12-17T13:49:41Z</time>
      </trkpt>
      <trkpt lat="43.36864" lon="2.38463">
        <ele>461.57</ele>
        <time>2020-12-17T13:49:49Z</time>
      </trkpt>
      <trkpt lat="43.36854" lon="2.38462">
        <ele>460.13</ele>
        <time>2020-12-17T13:49:59Z</time>
      </trkpt>
      <trkpt lat="43.36843" lon="2.3846">
        <ele>460.61</ele>
        <time>2020-12-17T13:50:08Z</time>
      </trkpt>
      <trkpt lat="43.36834" lon="2.38455">
        <ele>461.57</ele>
        <time>2020-12-17T13:50:18Z</time>
      </trkpt>
      <trkpt lat="43.36825" lon="2.38452">
        <ele>463.01</ele>
        <time>2020-12-17T13:50:30Z</time>
      </trkpt>
      <trkpt lat="43.36816" lon="2.38446">
        <ele>463.97</ele>
        <time>2020-12-17T13:50:42Z</time>
      </trkpt>
      <trkpt lat="43.36806" lon="2.38438">
        <ele>465.42</ele>
        <time>2020-12-17T13:50:54Z</time>
      </trkpt>
      <trkpt lat="43.36796" lon="2.38431">
        <ele>466.86</ele>
        <time>2020-12-17T13:51:10Z</time>
      </trkpt>
      <trkpt lat="43.36786" lon="2.38426">
        <ele>465.9</ele>
        <time>2020-12-17T13:51:21Z</time>
      </trkpt>
      <trkpt lat="43.36774" lon="2.3842">
        <ele>465.42</ele>
        <time>2020-12-17T13:51:32Z</time>
      </trkpt>
      <trkpt lat="43.3676" lon="2.38413">
        <ele>465.42</ele>
        <time>2020-12-17T13:51:42Z</time>
      </trkpt>
      <trkpt lat="43.36748" lon="2.38407">
        <ele>464.93</ele>
        <time>2020-12-17T13:51:54Z</time>
      </trkpt>
      <trkpt lat="43.36735" lon="2.38406">
        <ele>463.01</ele>
        <time>2020-12-17T13:52:05Z</time>
      </trkpt>
      <trkpt lat="43.36724" lon="2.38406">
        <ele>461.57</ele>
        <time>2020-12-17T13:52:15Z</time>
      </trkpt>
      <trkpt lat="43.36713" lon="2.38403">
        <ele>460.61</ele>
        <time>2020-12-17T13:52:25Z</time>
      </trkpt>
      <trkpt lat="43.36701" lon="2.38395">
        <ele>459.65</ele>
        <time>2020-12-17T13:52:36Z</time>
      </trkpt>
      <trkpt lat="43.3669" lon="2.38391">
        <ele>458.21</ele>
        <time>2020-12-17T13:52:46Z</time>
      </trkpt>
      <trkpt lat="43.3668" lon="2.38394">
        <ele>455.8</ele>
        <time>2020-12-17T13:52:56Z</time>
      </trkpt>
      <trkpt lat="43.36669" lon="2.3839">
        <ele>454.84</ele>
        <time>2020-12-17T13:53:06Z</time>
      </trkpt>
      <trkpt lat="43.36658" lon="2.3839">
        <ele>453.4</ele>
        <time>2020-12-17T13:53:16Z</time>
      </trkpt>
      <trkpt lat="43.36649" lon="2.38386">
        <ele>451.48</ele>
        <time>2020-12-17T13:53:27Z</time>
      </trkpt>
      <trkpt lat="43.36641" lon="2.38376">
        <ele>450.52</ele>
        <time>2020-12-17T13:53:40Z</time>
      </trkpt>
      <trkpt lat="43.36633" lon="2.38366">
        <ele>447.63</ele>
        <time>2020-12-17T13:53:52Z</time>
      </trkpt>
      <trkpt lat="43.36628" lon="2.38353">
        <ele>445.71</ele>
        <time>2020-12-17T13:54:09Z</time>
      </trkpt>
      <trkpt lat="43.36624" lon="2.3834">
        <ele>444.27</ele>
        <time>2020-12-17T13:54:20Z</time>
      </trkpt>
      <trkpt lat="43.36619" lon="2.38327">
        <ele>441.38</ele>
        <time>2020-12-17T13:54:32Z</time>
      </trkpt>
      <trkpt lat="43.3661" lon="2.38321">
        <ele>438.98</ele>
        <time>2020-12-17T13:54:46Z</time>
      </trkpt>
      <trkpt lat="43.36607" lon="2.38306">
        <ele>436.1</ele>
        <time>2020-12-17T13:54:59Z</time>
      </trkpt>
      <trkpt lat="43.36605" lon="2.38289">
        <ele>433.21</ele>
        <time>2020-12-17T13:55:15Z</time>
      </trkpt>
      <trkpt lat="43.36605" lon="2.38269">
        <ele>431.77</ele>
        <time>2020-12-17T13:55:28Z</time>
      </trkpt>
      <trkpt lat="43.36604" lon="2.38253">
        <ele>430.33</ele>
        <time>2020-12-17T13:55:51Z</time>
      </trkpt>
      <trkpt lat="43.36602" lon="2.38238">
        <ele>426</ele>
        <time>2020-12-17T13:56:09Z</time>
      </trkpt>
      <trkpt lat="43.366" lon="2.3821">
        <ele>423.12</ele>
        <time>2020-12-17T13:56:28Z</time>
      </trkpt>
      <trkpt lat="43.36599" lon="2.38179">
        <ele>420.71</ele>
        <time>2020-12-17T13:56:49Z</time>
      </trkpt>
      <trkpt lat="43.36598" lon="2.38154">
        <ele>418.79</ele>
        <time>2020-12-17T13:57:07Z</time>
      </trkpt>
      <trkpt lat="43.36595" lon="2.3813">
        <ele>415.43</ele>
        <time>2020-12-17T13:57:23Z</time>
      </trkpt>
      <trkpt lat="43.36595" lon="2.38107">
        <ele>413.02</ele>
        <time>2020-12-17T13:57:43Z</time>
      </trkpt>
      <trkpt lat="43.36591" lon="2.38082">
        <ele>410.14</ele>
        <time>2020-12-17T13:58:06Z</time>
      </trkpt>
      <trkpt lat="43.36589" lon="2.38057">
        <ele>406.29</ele>
        <time>2020-12-17T13:58:32Z</time>
      </trkpt>
      <trkpt lat="43.36586" lon="2.38033">
        <ele>404.85</ele>
        <time>2020-12-17T13:58:53Z</time>
      </trkpt>
      <trkpt lat="43.36584" lon="2.38009">
        <ele>401.97</ele>
        <time>2020-12-17T13:59:15Z</time>
      </trkpt>
      <trkpt lat="43.36578" lon="2.37985">
        <ele>399.08</ele>
        <time>2020-12-17T13:59:41Z</time>
      </trkpt>
      <trkpt lat="43.36575" lon="2.37963">
        <ele>396.68</ele>
        <time>2020-12-17T14:00:06Z</time>
      </trkpt>
      <trkpt lat="43.36569" lon="2.37942">
        <ele>393.8</ele>
        <time>2020-12-17T14:00:28Z</time>
      </trkpt>
      <trkpt lat="43.36567" lon="2.37925">
        <ele>391.39</ele>
        <time>2020-12-17T14:00:48Z</time>
      </trkpt>
      <trkpt lat="43.36561" lon="2.37907">
        <ele>388.99</ele>
        <time>2020-12-17T14:01:07Z</time>
      </trkpt>
      <trkpt lat="43.36559" lon="2.37892">
        <ele>388.03</ele>
        <time>2020-12-17T14:01:21Z</time>
      </trkpt>
      <trkpt lat="43.36559" lon="2.37877">
        <ele>385.63</ele>
        <time>2020-12-17T14:01:36Z</time>
      </trkpt>
      <trkpt lat="43.36569" lon="2.37874">
        <ele>385.63</ele>
        <time>2020-12-17T14:01:49Z</time>
      </trkpt>
      <trkpt lat="43.36579" lon="2.37873">
        <ele>387.55</ele>
        <time>2020-12-17T14:02:02Z</time>
      </trkpt>
      <trkpt lat="43.36591" lon="2.37873">
        <ele>389.47</ele>
        <time>2020-12-17T14:02:15Z</time>
      </trkpt>
      <trkpt lat="43.36602" lon="2.3787">
        <ele>389.47</ele>
        <time>2020-12-17T14:02:26Z</time>
      </trkpt>
      <trkpt lat="43.36615" lon="2.37868">
        <ele>390.91</ele>
        <time>2020-12-17T14:02:41Z</time>
      </trkpt>
      <trkpt lat="43.36625" lon="2.37866">
        <ele>392.36</ele>
        <time>2020-12-17T14:02:55Z</time>
      </trkpt>
      <trkpt lat="43.3664" lon="2.37863">
        <ele>393.8</ele>
        <time>2020-12-17T14:03:09Z</time>
      </trkpt>
      <trkpt lat="43.36655" lon="2.3786">
        <ele>395.72</ele>
        <time>2020-12-17T14:03:23Z</time>
      </trkpt>
      <trkpt lat="43.36671" lon="2.3786">
        <ele>398.6</ele>
        <time>2020-12-17T14:03:41Z</time>
      </trkpt>
      <trkpt lat="43.36684" lon="2.37857">
        <ele>399.57</ele>
        <time>2020-12-17T14:03:54Z</time>
      </trkpt>
      <trkpt lat="43.36695" lon="2.37851">
        <ele>399.57</ele>
        <time>2020-12-17T14:04:06Z</time>
      </trkpt>
      <trkpt lat="43.36707" lon="2.37848">
        <ele>398.6</ele>
        <time>2020-12-17T14:04:17Z</time>
      </trkpt>
      <trkpt lat="43.36723" lon="2.37852">
        <ele>399.08</ele>
        <time>2020-12-17T14:04:34Z</time>
      </trkpt>
      <trkpt lat="43.36737" lon="2.37859">
        <ele>401.01</ele>
        <time>2020-12-17T14:04:48Z</time>
      </trkpt>
      <trkpt lat="43.36751" lon="2.37864">
        <ele>401.01</ele>
        <time>2020-12-17T14:05:01Z</time>
      </trkpt>
      <trkpt lat="43.36761" lon="2.37872">
        <ele>400.53</ele>
        <time>2020-12-17T14:05:13Z</time>
      </trkpt>
      <trkpt lat="43.3677" lon="2.37881">
        <ele>400.05</ele>
        <time>2020-12-17T14:05:26Z</time>
      </trkpt>
      <trkpt lat="43.36778" lon="2.37894">
        <ele>397.64</ele>
        <time>2020-12-17T14:05:44Z</time>
      </trkpt>
      <trkpt lat="43.36784" lon="2.37909">
        <ele>395.72</ele>
        <time>2020-12-17T14:06:00Z</time>
      </trkpt>
      <trkpt lat="43.36793" lon="2.3794">
        <ele>393.8</ele>
        <time>2020-12-17T14:06:22Z</time>
      </trkpt>
      <trkpt lat="43.36803" lon="2.37959">
        <ele>391.87</ele>
        <time>2020-12-17T14:06:36Z</time>
      </trkpt>
      <trkpt lat="43.3681" lon="2.37979">
        <ele>392.36</ele>
        <time>2020-12-17T14:06:52Z</time>
      </trkpt>
      <trkpt lat="43.36814" lon="2.38002">
        <ele>395.72</ele>
        <time>2020-12-17T14:07:12Z</time>
      </trkpt>
      <trkpt lat="43.36829" lon="2.38019">
        <ele>396.68</ele>
        <time>2020-12-17T14:07:40Z</time>
      </trkpt>
      <trkpt lat="43.36847" lon="2.38019">
        <ele>393.32</ele>
        <time>2020-12-17T14:07:59Z</time>
      </trkpt>
      <trkpt lat="43.36866" lon="2.38024">
        <ele>393.32</ele>
        <time>2020-12-17T14:08:14Z</time>
      </trkpt>
      <trkpt lat="43.3688" lon="2.38021">
        <ele>390.91</ele>
        <time>2020-12-17T14:08:29Z</time>
      </trkpt>
      <trkpt lat="43.36897" lon="2.38022">
        <ele>388.03</ele>
        <time>2020-12-17T14:08:44Z</time>
      </trkpt>
      <trkpt lat="43.36916" lon="2.3802">
        <ele>382.26</ele>
        <time>2020-12-17T14:09:10Z</time>
      </trkpt>
      <trkpt lat="43.3693" lon="2.38015">
        <ele>379.38</ele>
        <time>2020-12-17T14:09:26Z</time>
      </trkpt>
      <trkpt lat="43.36943" lon="2.38011">
        <ele>379.86</ele>
        <time>2020-12-17T14:09:38Z</time>
      </trkpt>
      <trkpt lat="43.36958" lon="2.38005">
        <ele>379.38</ele>
        <time>2020-12-17T14:09:52Z</time>
      </trkpt>
      <trkpt lat="43.36976" lon="2.37994">
        <ele>378.9</ele>
        <time>2020-12-17T14:10:12Z</time>
      </trkpt>
      <trkpt lat="43.3699" lon="2.37984">
        <ele>376.49</ele>
        <time>2020-12-17T14:10:26Z</time>
      </trkpt>
      <trkpt lat="43.37004" lon="2.3797">
        <ele>375.53</ele>
        <time>2020-12-17T14:10:45Z</time>
      </trkpt>
      <trkpt lat="43.37016" lon="2.37964">
        <ele>375.53</ele>
        <time>2020-12-17T14:10:58Z</time>
      </trkpt>
      <trkpt lat="43.3703" lon="2.37958">
        <ele>376.01</ele>
        <time>2020-12-17T14:11:10Z</time>
      </trkpt>
      <trkpt lat="43.37043" lon="2.37956">
        <ele>374.09</ele>
        <time>2020-12-17T14:11:21Z</time>
      </trkpt>
      <trkpt lat="43.37054" lon="2.37956">
        <ele>373.61</ele>
        <time>2020-12-17T14:11:32Z</time>
      </trkpt>
      <trkpt lat="43.37068" lon="2.37953">
        <ele>373.13</ele>
        <time>2020-12-17T14:11:47Z</time>
      </trkpt>
      <trkpt lat="43.37079" lon="2.3795">
        <ele>371.69</ele>
        <time>2020-12-17T14:11:57Z</time>
      </trkpt>
      <trkpt lat="43.37091" lon="2.37945">
        <ele>370.73</ele>
        <time>2020-12-17T14:12:08Z</time>
      </trkpt>
      <trkpt lat="43.37104" lon="2.37942">
        <ele>371.21</ele>
        <time>2020-12-17T14:12:20Z</time>
      </trkpt>
      <trkpt lat="43.37118" lon="2.3794">
        <ele>372.17</ele>
        <time>2020-12-17T14:12:32Z</time>
      </trkpt>
      <trkpt lat="43.37128" lon="2.37934">
        <ele>371.69</ele>
        <time>2020-12-17T14:12:42Z</time>
      </trkpt>
      <trkpt lat="43.37141" lon="2.37934">
        <ele>370.73</ele>
        <time>2020-12-17T14:12:53Z</time>
      </trkpt>
      <trkpt lat="43.37154" lon="2.37935">
        <ele>370.73</ele>
        <time>2020-12-17T14:13:07Z</time>
      </trkpt>
      <trkpt lat="43.37168" lon="2.37936">
        <ele>369.76</ele>
        <time>2020-12-17T14:13:19Z</time>
      </trkpt>
      <trkpt lat="43.37182" lon="2.37939">
        <ele>369.76</ele>
        <time>2020-12-17T14:13:31Z</time>
      </trkpt>
      <trkpt lat="43.37193" lon="2.37946">
        <ele>368.8</ele>
        <time>2020-12-17T14:13:44Z</time>
      </trkpt>
      <trkpt lat="43.37206" lon="2.37949">
        <ele>367.84</ele>
        <time>2020-12-17T14:15:55Z</time>
      </trkpt>
      <trkpt lat="43.37217" lon="2.37962">
        <ele>365.92</ele>
        <time>2020-12-17T14:16:54Z</time>
      </trkpt>
      <trkpt lat="43.37228" lon="2.37969">
        <ele>363.52</ele>
        <time>2020-12-17T14:17:07Z</time>
      </trkpt>
      <trkpt lat="43.37239" lon="2.37971">
        <ele>361.59</ele>
        <time>2020-12-17T14:17:23Z</time>
      </trkpt>
      <trkpt lat="43.3725" lon="2.37969">
        <ele>359.19</ele>
        <time>2020-12-17T14:17:38Z</time>
      </trkpt>
      <trkpt lat="43.37256" lon="2.37968">
        <ele>357.27</ele>
        <time>2020-12-17T14:17:54Z</time>
      </trkpt>
      <trkpt lat="43.37267" lon="2.37962">
        <ele>353.42</ele>
        <time>2020-12-17T14:18:16Z</time>
      </trkpt>
      <trkpt lat="43.37276" lon="2.37959">
        <ele>351.98</ele>
        <time>2020-12-17T14:18:30Z</time>
      </trkpt>
      <trkpt lat="43.37285" lon="2.37962">
        <ele>349.58</ele>
        <time>2020-12-17T14:18:43Z</time>
      </trkpt>
      <trkpt lat="43.37292" lon="2.37974">
        <ele>344.77</ele>
        <time>2020-12-17T14:19:12Z</time>
      </trkpt>
      <trkpt lat="43.37313" lon="2.37967">
        <ele>341.41</ele>
        <time>2020-12-17T14:19:38Z</time>
      </trkpt>
      <trkpt lat="43.37319" lon="2.37957">
        <ele>339.48</ele>
        <time>2020-12-17T14:19:53Z</time>
      </trkpt>
      <trkpt lat="43.37328" lon="2.37948">
        <ele>336.6</ele>
        <time>2020-12-17T14:20:12Z</time>
      </trkpt>
      <trkpt lat="43.37337" lon="2.3794">
        <ele>335.16</ele>
        <time>2020-12-17T14:20:25Z</time>
      </trkpt>
      <trkpt lat="43.37347" lon="2.37932">
        <ele>335.64</ele>
        <time>2020-12-17T14:20:35Z</time>
      </trkpt>
      <trkpt lat="43.37357" lon="2.37923">
        <ele>335.16</ele>
        <time>2020-12-17T14:20:46Z</time>
      </trkpt>
      <trkpt lat="43.37365" lon="2.37916">
        <ele>333.71</ele>
        <time>2020-12-17T14:20:56Z</time>
      </trkpt>
      <trkpt lat="43.37368" lon="2.37904">
        <ele>331.31</ele>
        <time>2020-12-17T14:21:10Z</time>
      </trkpt>
      <trkpt lat="43.37366" lon="2.37891">
        <ele>328.43</ele>
        <time>2020-12-17T14:21:27Z</time>
      </trkpt>
      <trkpt lat="43.37361" lon="2.37876">
        <ele>324.58</ele>
        <time>2020-12-17T14:21:53Z</time>
      </trkpt>
      <trkpt lat="43.37391" lon="2.37852">
        <ele>321.7</ele>
        <time>2020-12-17T14:22:31Z</time>
      </trkpt>
      <trkpt lat="43.37374" lon="2.37839">
        <ele>322.18</ele>
        <time>2020-12-17T14:22:51Z</time>
      </trkpt>
      <trkpt lat="43.37357" lon="2.37828">
        <ele>325.06</ele>
        <time>2020-12-17T14:23:08Z</time>
      </trkpt>
      <trkpt lat="43.37344" lon="2.37828">
        <ele>325.54</ele>
        <time>2020-12-17T14:23:35Z</time>
      </trkpt>
      <trkpt lat="43.37343" lon="2.37864">
        <ele>319.78</ele>
        <time>2020-12-17T14:24:28Z</time>
      </trkpt>
      <trkpt lat="43.37336" lon="2.37861">
        <ele>317.85</ele>
        <time>2020-12-17T14:25:42Z</time>
      </trkpt>
      <trkpt lat="43.37317" lon="2.37869">
        <ele>317.37</ele>
        <time>2020-12-17T14:25:53Z</time>
      </trkpt>
      <trkpt lat="43.37311" lon="2.37875">
        <ele>316.89</ele>
        <time>2020-12-17T14:26:22Z</time>
      </trkpt>
      <trkpt lat="43.37304" lon="2.3788">
        <ele>317.37</ele>
        <time>2020-12-17T14:26:53Z</time>
      </trkpt>
      <trkpt lat="43.37291" lon="2.37883">
        <ele>316.89</ele>
        <time>2020-12-17T14:27:03Z</time>
      </trkpt>
      <trkpt lat="43.3728" lon="2.3788">
        <ele>316.89</ele>
        <time>2020-12-17T14:27:20Z</time>
      </trkpt>
      <trkpt lat="43.37273" lon="2.37866">
        <ele>316.89</ele>
        <time>2020-12-17T14:27:30Z</time>
      </trkpt>
      <trkpt lat="43.37267" lon="2.37852">
        <ele>316.89</ele>
        <time>2020-12-17T14:27:42Z</time>
      </trkpt>
      <trkpt lat="43.37262" lon="2.37839">
        <ele>316.89</ele>
        <time>2020-12-17T14:27:52Z</time>
      </trkpt>
      <trkpt lat="43.37255" lon="2.37826">
        <ele>316.89</ele>
        <time>2020-12-17T14:28:03Z</time>
      </trkpt>
      <trkpt lat="43.37249" lon="2.37812">
        <ele>316.89</ele>
        <time>2020-12-17T14:28:27Z</time>
      </trkpt>
      <trkpt lat="43.37241" lon="2.37797">
        <ele>316.89</ele>
        <time>2020-12-17T14:28:40Z</time>
      </trkpt>
      <trkpt lat="43.37237" lon="2.37793">
        <ele>316.89</ele>
        <time>2020-12-17T14:28:55Z</time>
      </trkpt>
      <trkpt lat="43.37228" lon="2.37784">
        <ele>316.89</ele>
        <time>2020-12-17T14:29:05Z</time>
      </trkpt>
      <trkpt lat="43.37216" lon="2.37782">
        <ele>316.41</ele>
        <time>2020-12-17T14:29:15Z</time>
      </trkpt>
      <trkpt lat="43.37208" lon="2.37778">
        <ele>315.93</ele>
        <time>2020-12-17T14:29:24Z</time>
      </trkpt>
      <trkpt lat="43.37199" lon="2.37779">
        <ele>315.45</ele>
        <time>2020-12-17T14:29:33Z</time>
      </trkpt>
      <trkpt lat="43.37188" lon="2.37782">
        <ele>314.49</ele>
        <time>2020-12-17T14:29:42Z</time>
      </trkpt>
      <trkpt lat="43.37179" lon="2.37784">
        <ele>314.01</ele>
        <time>2020-12-17T14:29:50Z</time>
      </trkpt>
      <trkpt lat="43.37168" lon="2.37785">
        <ele>313.53</ele>
        <time>2020-12-17T14:29:59Z</time>
      </trkpt>
      <trkpt lat="43.37161" lon="2.37786">
        <ele>313.05</ele>
        <time>2020-12-17T14:30:15Z</time>
      </trkpt>
      <trkpt lat="43.37154" lon="2.37774">
        <ele>312.57</ele>
        <time>2020-12-17T14:30:27Z</time>
      </trkpt>
      <trkpt lat="43.37149" lon="2.37762">
        <ele>309.2</ele>
        <time>2020-12-17T14:30:42Z</time>
      </trkpt>
      <trkpt lat="43.3714" lon="2.37759">
        <ele>307.28</ele>
        <time>2020-12-17T14:30:55Z</time>
      </trkpt>
      <trkpt lat="43.37132" lon="2.37747">
        <ele>306.8</ele>
        <time>2020-12-17T14:31:06Z</time>
      </trkpt>
      <trkpt lat="43.37122" lon="2.37736">
        <ele>306.32</ele>
        <time>2020-12-17T14:31:20Z</time>
      </trkpt>
    </trkseg>
  </trk>
</gpx>